Wetterdaten: Sonntag, 02.11.2014
Datum Zeit Temp. Aussen +5cm Feuchte Auss Luftdruck Regen Sonnenschein Regendauer Solar Windben
02.11.2014 00:00 12,1 C 10,6 C 94 % 1016,8 hPa 0,0 l/m 0 min 0 min 0 W/m 8,4 km/h (2 Bft)
02.11.2014 00:02 12,1 C 10,6 C 94 % 1016,9 hPa 0,0 l/m 0 min 0 min 0 W/m 10,5 km/h (2 Bft)
02.11.2014 00:05 12,1 C 10,6 C 94 % 1016,9 hPa 0,0 l/m 0 min 0 min 0 W/m 10,5 km/h (2 Bft)
02.11.2014 00:08 12,1 C 10,6 C 94 % 1016,9 hPa 0,0 l/m 0 min 0 min 0 W/m 10,5 km/h (2 Bft)
02.11.2014 00:10 12,1 C 10,6 C 94 % 1016,8 hPa 0,0 l/m 0 min 0 min 0 W/m 6,3 km/h (2 Bft)
02.11.2014 00:12 12,1 C 10,6 C 95 % 1016,9 hPa 0,0 l/m 0 min 0 min 0 W/m 8,4 km/h (2 Bft)
02.11.2014 00:14 12,1 C 10,6 C 95 % 1016,8 hPa 0,0 l/m 0 min 0 min 0 W/m 8,4 km/h (2 Bft)
02.11.2014 00:16 12,1 C 10,6 C 95 % 1016,8 hPa 0,0 l/m 0 min 0 min 0 W/m 8,4 km/h (2 Bft)
02.11.2014 00:18 12,1 C 10,6 C 95 % 1016,8 hPa 0,0 l/m 0 min 0 min 0 W/m 8,4 km/h (2 Bft)
02.11.2014 00:20 12,1 C 10,6 C 95 % 1016,8 hPa 0,0 l/m 0 min 0 min 0 W/m 8,4 km/h (2 Bft)
02.11.2014 00:22 12,1 C 10,6 C 95 % 1016,8 hPa 0,0 l/m 0 min 0 min 0 W/m 8,4 km/h (2 Bft)
02.11.2014 00:24 12,1 C 10,6 C 95 % 1016,8 hPa 0,0 l/m 0 min 0 min 0 W/m 8,4 km/h (2 Bft)
02.11.2014 00:26 12,1 C 10,6 C 95 % 1016,8 hPa 0,0 l/m 0 min 0 min 0 W/m 8,4 km/h (2 Bft)
02.11.2014 00:28 12,0 C 10,6 C 95 % 1016,8 hPa 0,0 l/m 0 min 0 min 0 W/m 8,4 km/h (2 Bft)
02.11.2014 00:30 12,0 C 10,6 C 95 % 1016,8 hPa 0,0 l/m 0 min 0 min 0 W/m 10,5 km/h (2 Bft)
02.11.2014 00:32 12,0 C 10,6 C 95 % 1016,7 hPa 0,0 l/m 0 min 0 min 0 W/m 8,4 km/h (2 Bft)
02.11.2014 00:34 12,0 C 10,6 C 95 % 1016,7 hPa 0,0 l/m 0 min 0 min 0 W/m 10,5 km/h (2 Bft)
02.11.2014 00:36 12,0 C 10,6 C 95 % 1016,8 hPa 0,0 l/m 0 min 0 min 0 W/m 10,5 km/h (2 Bft)
02.11.2014 00:38 12,0 C 10,6 C 95 % 1016,8 hPa 0,0 l/m 0 min 0 min 0 W/m 10,5 km/h (2 Bft)
02.11.2014 00:40 12,0 C 10,6 C 95 % 1016,7 hPa 0,0 l/m 0 min 0 min 0 W/m 10,5 km/h (2 Bft)
02.11.2014 00:42 11,9 C 10,6 C 95 % 1016,8 hPa 0,0 l/m 0 min 0 min 0 W/m 10,5 km/h (2 Bft)
02.11.2014 00:44 11,9 C 10,6 C 95 % 1016,7 hPa 0,0 l/m 0 min 0 min 0 W/m 10,5 km/h (2 Bft)
02.11.2014 00:46 11,9 C 10,6 C 95 % 1016,7 hPa 0,0 l/m 0 min 0 min 0 W/m 10,5 km/h (2 Bft)
02.11.2014 00:48 11,9 C 10,6 C 95 % 1016,7 hPa 0,0 l/m 0 min 0 min 0 W/m 10,5 km/h (2 Bft)
02.11.2014 00:50 11,9 C 10,6 C 95 % 1016,7 hPa 0,0 l/m 0 min 0 min 0 W/m 6,3 km/h (2 Bft)
02.11.2014 00:52 11,9 C 10,6 C 95 % 1016,6 hPa 0,0 l/m 0 min 0 min 0 W/m 10,5 km/h (2 Bft)
02.11.2014 00:54 11,9 C 10,0 C 95 % 1016,7 hPa 0,0 l/m 0 min 0 min 0 W/m 8,4 km/h (2 Bft)
02.11.2014 00:56 11,9 C 10,0 C 95 % 1016,6 hPa 0,0 l/m 0 min 0 min 0 W/m 10,5 km/h (2 Bft)
02.11.2014 00:58 11,9 C 10,6 C 95 % 1016,7 hPa 0,0 l/m 0 min 0 min 0 W/m 10,5 km/h (2 Bft)
02.11.2014 01:00 11,8 C 10,6 C 95 % 1016,7 hPa 0,0 l/m 0 min 0 min 0 W/m 10,5 km/h (2 Bft)
02.11.2014 01:02 11,8 C 10,6 C 95 % 1016,7 hPa 0,0 l/m 0 min 0 min 0 W/m 8,4 km/h (2 Bft)
02.11.2014 01:04 11,8 C 10,6 C 95 % 1016,7 hPa 0,0 l/m 0 min 0 min 0 W/m 10,5 km/h (2 Bft)
02.11.2014 01:06 11,8 C 10,6 C 95 % 1016,6 hPa 0,0 l/m 0 min 0 min 0 W/m 8,4 km/h (2 Bft)
02.11.2014 01:08 11,8 C 10,6 C 95 % 1016,7 hPa 0,0 l/m 0 min 0 min 0 W/m 12,6 km/h (3 Bft)
02.11.2014 01:10 11,8 C 10,0 C 95 % 1016,6 hPa 0,0 l/m 0 min 0 min 0 W/m 8,4 km/h (2 Bft)
02.11.2014 01:12 11,8 C 10,0 C 94 % 1016,6 hPa 0,0 l/m 0 min 0 min 0 W/m 6,3 km/h (2 Bft)
02.11.2014 01:14 11,8 C 10,0 C 94 % 1016,6 hPa 0,0 l/m 0 min 0 min 0 W/m 10,5 km/h (2 Bft)
02.11.2014 01:16 11,8 C 10,0 C 94 % 1016,6 hPa 0,0 l/m 0 min 0 min 0 W/m 6,3 km/h (2 Bft)
02.11.2014 01:18 11,7 C 10,0 C 94 % 1016,6 hPa 0,0 l/m 0 min 0 min 0 W/m 12,6 km/h (3 Bft)
02.11.2014 01:20 11,7 C 10,0 C 94 % 1016,6 hPa 0,0 l/m 0 min 0 min 0 W/m 12,6 km/h (3 Bft)
02.11.2014 01:22 11,7 C 10,0 C 94 % 1016,5 hPa 0,0 l/m 0 min 0 min 0 W/m 10,5 km/h (2 Bft)
02.11.2014 01:24 11,7 C 10,0 C 95 % 1016,5 hPa 0,0 l/m 0 min 0 min 0 W/m 10,5 km/h (2 Bft)
02.11.2014 01:26 11,7 C 10,0 C 95 % 1016,5 hPa 0,0 l/m 0 min 0 min 0 W/m 14,6 km/h (3 Bft)
02.11.2014 01:28 11,7 C 10,0 C 95 % 1016,5 hPa 0,0 l/m 0 min 0 min 0 W/m 10,5 km/h (2 Bft)
02.11.2014 01:30 11,7 C 10,0 C 95 % 1016,5 hPa 0,0 l/m 0 min 0 min 0 W/m 10,5 km/h (2 Bft)
02.11.2014 01:32 11,7 C 10,0 C 95 % 1016,5 hPa 0,0 l/m 0 min 0 min 0 W/m 8,4 km/h (2 Bft)
02.11.2014 01:34 11,7 C 10,0 C 95 % 1016,5 hPa 0,0 l/m 0 min 0 min 0 W/m 8,4 km/h (2 Bft)
02.11.2014 01:36 11,7 C 10,0 C 95 % 1016,4 hPa 0,0 l/m 0 min 0 min 0 W/m 10,5 km/h (2 Bft)
02.11.2014 01:38 11,7 C 10,6 C 95 % 1016,4 hPa 0,0 l/m 0 min 0 min 0 W/m 8,4 km/h (2 Bft)
02.11.2014 01:40 11,7 C 10,6 C 95 % 1016,3 hPa 0,0 l/m 0 min 0 min 0 W/m 8,4 km/h (2 Bft)
02.11.2014 01:42 11,7 C 10,0 C 95 % 1016,3 hPa 0,0 l/m 0 min 0 min 0 W/m 8,4 km/h (2 Bft)
02.11.2014 01:44 11,7 C 10,0 C 95 % 1016,3 hPa 0,0 l/m 0 min 0 min 0 W/m 8,4 km/h (2 Bft)
02.11.2014 01:46 11,7 C 10,0 C 95 % 1016,3 hPa 0,0 l/m 0 min 0 min 0 W/m 10,5 km/h (2 Bft)
02.11.2014 01:48 11,7 C 10,0 C 95 % 1016,3 hPa 0,0 l/m 0 min 0 min 0 W/m 10,5 km/h (2 Bft)
02.11.2014 01:50 11,7 C 10,0 C 95 % 1016,2 hPa 0,0 l/m 0 min 0 min 0 W/m 12,6 km/h (3 Bft)
02.11.2014 01:52 11,7 C 10,0 C 95 % 1016,2 hPa 0,0 l/m 0 min 0 min 0 W/m 12,6 km/h (3 Bft)
02.11.2014 01:54 11,7 C 10,0 C 95 % 1016,2 hPa 0,0 l/m 0 min 0 min 0 W/m 10,5 km/h (2 Bft)
02.11.2014 01:56 11,6 C 10,0 C 95 % 1016,2 hPa 0,0 l/m 0 min 0 min 0 W/m 8,4 km/h (2 Bft)
02.11.2014 01:58 11,7 C 10,0 C 95 % 1016,1 hPa 0,0 l/m 0 min 0 min 0 W/m 8,4 km/h (2 Bft)
02.11.2014 02:00 11,7 C 10,6 C 95 % 1016,1 hPa 0,0 l/m 0 min 0 min 0 W/m 8,4 km/h (2 Bft)
02.11.2014 02:02 11,7 C 10,0 C 95 % 1016,2 hPa 0,0 l/m 0 min 0 min 0 W/m 6,3 km/h (2 Bft)
02.11.2014 02:04 11,7 C 10,0 C 95 % 1016,1 hPa 0,0 l/m 0 min 0 min 0 W/m 10,5 km/h (2 Bft)
02.11.2014 02:06 11,7 C 10,0 C 95 % 1016,2 hPa 0,0 l/m 0 min 0 min 0 W/m 10,5 km/h (2 Bft)
02.11.2014 02:08 11,7 C 10,6 C 95 % 1016,1 hPa 0,0 l/m 0 min 0 min 0 W/m 10,5 km/h (2 Bft)
02.11.2014 02:10 11,7 C 10,6 C 95 % 1016,1 hPa 0,0 l/m 0 min 0 min 0 W/m 10,5 km/h (2 Bft)
02.11.2014 02:12 11,7 C 10,6 C 95 % 1016,0 hPa 0,0 l/m 0 min 0 min 0 W/m 12,6 km/h (3 Bft)
02.11.2014 02:14 11,7 C 10,6 C 95 % 1015,9 hPa 0,0 l/m 0 min 0 min 0 W/m 12,6 km/h (3 Bft)
02.11.2014 02:16 11,7 C 10,6 C 95 % 1015,8 hPa 0,0 l/m 0 min 0 min 0 W/m 10,5 km/h (2 Bft)
02.11.2014 02:18 11,7 C 10,6 C 95 % 1015,8 hPa 0,0 l/m 0 min 0 min 0 W/m 10,5 km/h (2 Bft)
02.11.2014 02:20 11,7 C 10,6 C 95 % 1015,8 hPa 0,0 l/m 0 min 0 min 0 W/m 12,6 km/h (3 Bft)
02.11.2014 02:22 11,7 C 10,6 C 95 % 1015,8 hPa 0,0 l/m 0 min 0 min 0 W/m 12,6 km/h (3 Bft)
02.11.2014 02:24 11,7 C 10,6 C 95 % 1015,8 hPa 0,0 l/m 0 min 0 min 0 W/m 10,5 km/h (2 Bft)
02.11.2014 02:26 11,7 C 10,6 C 95 % 1015,7 hPa 0,0 l/m 0 min 0 min 0 W/m 14,6 km/h (3 Bft)
02.11.2014 02:28 11,7 C 10,6 C 95 % 1015,8 hPa 0,0 l/m 0 min 0 min 0 W/m 12,6 km/h (3 Bft)
02.11.2014 02:30 11,7 C 10,6 C 95 % 1015,7 hPa 0,0 l/m 0 min 0 min 0 W/m 8,4 km/h (2 Bft)
02.11.2014 02:32 11,7 C 10,6 C 95 % 1015,7 hPa 0,0 l/m 0 min 0 min 0 W/m 12,6 km/h (3 Bft)
02.11.2014 02:34 11,7 C 10,6 C 95 % 1015,8 hPa 0,0 l/m 0 min 0 min 0 W/m 10,5 km/h (2 Bft)
02.11.2014 02:36 11,7 C 10,6 C 95 % 1015,7 hPa 0,0 l/m 0 min 0 min 0 W/m 6,3 km/h (2 Bft)
02.11.2014 02:38 11,7 C 10,6 C 95 % 1015,8 hPa 0,0 l/m 0 min 0 min 0 W/m 8,4 km/h (2 Bft)
02.11.2014 02:40 11,8 C 10,6 C 95 % 1015,7 hPa 0,0 l/m 0 min 0 min 0 W/m 12,6 km/h (3 Bft)
02.11.2014 02:42 11,8 C 10,6 C 95 % 1015,7 hPa 0,0 l/m 0 min 0 min 0 W/m 10,5 km/h (2 Bft)
02.11.2014 02:44 11,8 C 10,6 C 95 % 1015,6 hPa 0,0 l/m 0 min 0 min 0 W/m 12,6 km/h (3 Bft)
02.11.2014 02:46 11,8 C 10,6 C 95 % 1015,6 hPa 0,0 l/m 0 min 0 min 0 W/m 12,6 km/h (3 Bft)
02.11.2014 02:48 11,8 C 10,6 C 95 % 1015,6 hPa 0,0 l/m 0 min 0 min 0 W/m 8,4 km/h (2 Bft)
02.11.2014 02:50 11,8 C 10,6 C 95 % 1015,6 hPa 0,0 l/m 0 min 0 min 0 W/m 10,5 km/h (2 Bft)
02.11.2014 02:52 11,8 C 10,6 C 95 % 1015,6 hPa 0,0 l/m 0 min 0 min 0 W/m 10,5 km/h (2 Bft)
02.11.2014 02:54 11,8 C 10,0 C 95 % 1015,6 hPa 0,0 l/m 0 min 0 min 0 W/m 8,4 km/h (2 Bft)
02.11.2014 02:56 11,8 C 10,0 C 95 % 1015,6 hPa 0,0 l/m 0 min 0 min 0 W/m 8,4 km/h (2 Bft)
02.11.2014 02:58 11,8 C 10,0 C 95 % 1015,6 hPa 0,0 l/m 0 min 0 min 0 W/m 8,4 km/h (2 Bft)
02.11.2014 03:00 11,8 C 10,0 C 95 % 1015,6 hPa 0,0 l/m 0 min 0 min 0 W/m 8,4 km/h (2 Bft)
02.11.2014 03:02 11,8 C 10,0 C 95 % 1015,5 hPa 0,0 l/m 0 min 0 min 0 W/m 8,4 km/h (2 Bft)
02.11.2014 03:04 11,8 C 10,0 C 95 % 1015,6 hPa 0,0 l/m 0 min 0 min 0 W/m 8,4 km/h (2 Bft)
02.11.2014 03:06 11,7 C 10,0 C 95 % 1015,6 hPa 0,0 l/m 0 min 0 min 0 W/m 8,4 km/h (2 Bft)
02.11.2014 03:08 11,7 C 10,0 C 95 % 1015,5 hPa 0,0 l/m 0 min 0 min 0 W/m 8,4 km/h (2 Bft)
02.11.2014 03:10 11,7 C 10,0 C 95 % 1015,5 hPa 0,0 l/m 0 min 0 min 0 W/m 10,5 km/h (2 Bft)
02.11.2014 03:12 11,7 C 10,6 C 95 % 1015,4 hPa 0,0 l/m 0 min 0 min 0 W/m 10,5 km/h (2 Bft)
02.11.2014 03:14 11,7 C 10,6 C 95 % 1015,5 hPa 0,0 l/m 0 min 0 min 0 W/m 10,5 km/h (2 Bft)
02.11.2014 03:16 11,7 C 10,6 C 95 % 1015,4 hPa 0,0 l/m 0 min 0 min 0 W/m 12,6 km/h (3 Bft)
02.11.2014 03:18 11,7 C 10,6 C 95 % 1015,5 hPa 0,0 l/m 0 min 0 min 0 W/m 10,5 km/h (2 Bft)
02.11.2014 03:20 11,7 C 10,6 C 95 % 1015,5 hPa 0,0 l/m 0 min 0 min 0 W/m 8,4 km/h (2 Bft)
02.11.2014 03:22 11,7 C 10,6 C 95 % 1015,5 hPa 0,0 l/m 0 min 0 min 0 W/m 10,5 km/h (2 Bft)
02.11.2014 03:24 11,7 C 10,6 C 95 % 1015,5 hPa 0,0 l/m 0 min 0 min 0 W/m 10,5 km/h (2 Bft)
02.11.2014 03:26 11,7 C 10,6 C 95 % 1015,4 hPa 0,0 l/m 0 min 0 min 0 W/m 8,4 km/h (2 Bft)
02.11.2014 03:28 11,8 C 10,6 C 95 % 1015,4 hPa 0,0 l/m 0 min 0 min 0 W/m 10,5 km/h (2 Bft)
02.11.2014 03:30 11,8 C 10,6 C 95 % 1015,5 hPa 0,0 l/m 0 min 0 min 0 W/m 10,5 km/h (2 Bft)
02.11.2014 03:32 11,8 C 10,6 C 95 % 1015,4 hPa 0,0 l/m 0 min 0 min 0 W/m 10,5 km/h (2 Bft)
02.11.2014 03:34 11,8 C 10,6 C 95 % 1015,4 hPa 0,0 l/m 0 min 0 min 0 W/m 10,5 km/h (2 Bft)
02.11.2014 03:36 11,8 C 10,6 C 95 % 1015,5 hPa 0,0 l/m 0 min 0 min 0 W/m 8,4 km/h (2 Bft)
02.11.2014 03:38 11,8 C 10,6 C 95 % 1015,4 hPa 0,0 l/m 0 min 0 min 0 W/m 12,6 km/h (3 Bft)
02.11.2014 03:40 11,8 C 10,6 C 95 % 1015,4 hPa 0,0 l/m 0 min 0 min 0 W/m 10,5 km/h (2 Bft)
02.11.2014 03:42 11,8 C 10,6 C 95 % 1015,4 hPa 0,0 l/m 0 min 0 min 0 W/m 10,5 km/h (2 Bft)
02.11.2014 03:44 11,8 C 10,6 C 95 % 1015,4 hPa 0,0 l/m 0 min 0 min 0 W/m 10,5 km/h (2 Bft)
02.11.2014 03:46 11,8 C 10,6 C 95 % 1015,5 hPa 0,0 l/m 0 min 0 min 0 W/m 12,6 km/h (3 Bft)
02.11.2014 03:48 11,8 C 10,6 C 96 % 1015,5 hPa 0,0 l/m 0 min 0 min 0 W/m 10,5 km/h (2 Bft)
02.11.2014 03:50 11,8 C 10,6 C 96 % 1015,4 hPa 0,0 l/m 0 min 0 min 0 W/m 14,6 km/h (3 Bft)
02.11.2014 03:52 11,8 C 11,1 C 96 % 1015,5 hPa 0,0 l/m 0 min 0 min 0 W/m 12,6 km/h (3 Bft)
02.11.2014 03:54 11,9 C 11,1 C 96 % 1015,5 hPa 0,0 l/m 0 min 0 min 0 W/m 14,6 km/h (3 Bft)
02.11.2014 03:56 11,9 C 11,1 C 96 % 1015,5 hPa 0,0 l/m 0 min 0 min 0 W/m 8,4 km/h (2 Bft)
02.11.2014 03:58 11,9 C 11,1 C 96 % 1015,6 hPa 0,0 l/m 0 min 0 min 0 W/m 8,4 km/h (2 Bft)
02.11.2014 04:00 11,9 C 11,1 C 96 % 1015,5 hPa 0,0 l/m 0 min 0 min 0 W/m 10,5 km/h (2 Bft)
02.11.2014 04:02 11,9 C 11,1 C 96 % 1015,5 hPa 0,0 l/m 0 min 0 min 0 W/m 8,4 km/h (2 Bft)
02.11.2014 04:04 11,9 C 11,1 C 96 % 1015,5 hPa 0,0 l/m 0 min 0 min 0 W/m 10,5 km/h (2 Bft)
02.11.2014 04:06 11,9 C 11,1 C 96 % 1015,4 hPa 0,0 l/m 0 min 0 min 0 W/m 12,6 km/h (3 Bft)
02.11.2014 04:08 12,0 C 11,1 C 96 % 1015,4 hPa 0,0 l/m 0 min 0 min 0 W/m 8,4 km/h (2 Bft)
02.11.2014 04:10 12,0 C 11,1 C 96 % 1015,4 hPa 0,0 l/m 0 min 0 min 0 W/m 10,5 km/h (2 Bft)
02.11.2014 04:12 12,0 C 11,1 C 96 % 1015,4 hPa 0,0 l/m 0 min 0 min 0 W/m 12,6 km/h (3 Bft)
02.11.2014 04:14 12,0 C 11,1 C 96 % 1015,4 hPa 0,0 l/m 0 min 0 min 0 W/m 10,5 km/h (2 Bft)
02.11.2014 04:16 12,1 C 11,1 C 96 % 1015,3 hPa 0,0 l/m 0 min 0 min 0 W/m 10,5 km/h (2 Bft)
02.11.2014 04:18 12,1 C 11,1 C 96 % 1015,3 hPa 0,0 l/m 0 min 0 min 0 W/m 12,6 km/h (3 Bft)
02.11.2014 04:20 12,1 C 11,1 C 96 % 1015,2 hPa 0,0 l/m 0 min 0 min 0 W/m 10,5 km/h (2 Bft)
02.11.2014 04:22 12,1 C 11,1 C 96 % 1015,3 hPa 0,0 l/m 0 min 0 min 0 W/m 12,6 km/h (3 Bft)
02.11.2014 04:24 12,1 C 11,1 C 96 % 1015,2 hPa 0,0 l/m 0 min 0 min 0 W/m 12,6 km/h (3 Bft)
02.11.2014 04:26 12,1 C 11,1 C 96 % 1015,3 hPa 0,0 l/m 0 min 0 min 0 W/m 8,4 km/h (2 Bft)
02.11.2014 04:28 12,1 C 11,1 C 96 % 1015,2 hPa 0,0 l/m 0 min 0 min 0 W/m 14,6 km/h (3 Bft)
02.11.2014 04:30 12,1 C 11,1 C 96 % 1015,3 hPa 0,0 l/m 0 min 0 min 0 W/m 12,6 km/h (3 Bft)
02.11.2014 04:32 12,1 C 11,1 C 96 % 1015,3 hPa 0,0 l/m 0 min 0 min 0 W/m 10,5 km/h (2 Bft)
02.11.2014 04:34 12,2 C 11,1 C 96 % 1015,3 hPa 0,0 l/m 0 min 0 min 0 W/m 8,4 km/h (2 Bft)
02.11.2014 04:36 12,2 C 11,1 C 96 % 1015,4 hPa 0,0 l/m 0 min 0 min 0 W/m 12,6 km/h (3 Bft)
02.11.2014 04:38 12,2 C 11,1 C 96 % 1015,4 hPa 0,0 l/m 0 min 0 min 0 W/m 8,4 km/h (2 Bft)
02.11.2014 04:40 12,2 C 11,1 C 96 % 1015,3 hPa 0,0 l/m 0 min 0 min 0 W/m 10,5 km/h (2 Bft)
02.11.2014 04:42 12,2 C 11,1 C 96 % 1015,3 hPa 0,0 l/m 0 min 0 min 0 W/m 12,6 km/h (3 Bft)
02.11.2014 04:44 12,2 C 11,1 C 96 % 1015,3 hPa 0,0 l/m 0 min 0 min 0 W/m 10,5 km/h (2 Bft)
02.11.2014 04:46 12,2 C 11,1 C 96 % 1015,2 hPa 0,0 l/m 0 min 0 min 0 W/m 10,5 km/h (2 Bft)
02.11.2014 04:48 12,2 C 11,1 C 96 % 1015,2 hPa 0,0 l/m 0 min 0 min 0 W/m 12,6 km/h (3 Bft)
02.11.2014 04:50 12,2 C 11,1 C 96 % 1015,2 hPa 0,0 l/m 0 min 0 min 0 W/m 12,6 km/h (3 Bft)
02.11.2014 04:52 12,2 C 11,1 C 96 % 1015,2 hPa 0,0 l/m 0 min 0 min 0 W/m 10,5 km/h (2 Bft)
02.11.2014 04:54 12,2 C 10,6 C 96 % 1015,2 hPa 0,0 l/m 0 min 0 min 0 W/m 14,6 km/h (3 Bft)
02.11.2014 04:56 12,2 C 10,6 C 96 % 1015,2 hPa 0,0 l/m 0 min 0 min 0 W/m 10,5 km/h (2 Bft)
02.11.2014 04:58 12,2 C 10,6 C 96 % 1015,2 hPa 0,0 l/m 0 min 0 min 0 W/m 8,4 km/h (2 Bft)
02.11.2014 05:00 12,2 C 10,6 C 96 % 1015,3 hPa 0,0 l/m 0 min 0 min 0 W/m 10,5 km/h (2 Bft)
02.11.2014 05:02 12,2 C 10,6 C 96 % 1015,3 hPa 0,0 l/m 0 min 0 min 0 W/m 8,4 km/h (2 Bft)
02.11.2014 05:04 12,2 C 10,6 C 96 % 1015,3 hPa 0,0 l/m 0 min 0 min 0 W/m 10,5 km/h (2 Bft)
02.11.2014 05:06 12,1 C 11,1 C 96 % 1015,3 hPa 0,0 l/m 0 min 0 min 0 W/m 8,4 km/h (2 Bft)
02.11.2014 05:08 12,2 C 11,1 C 96 % 1015,3 hPa 0,0 l/m 0 min 0 min 0 W/m 8,4 km/h (2 Bft)
02.11.2014 05:10 12,1 C 11,1 C 96 % 1015,3 hPa 0,0 l/m 0 min 0 min 0 W/m 6,3 km/h (2 Bft)
02.11.2014 05:12 12,2 C 11,1 C 96 % 1015,2 hPa 0,0 l/m 0 min 0 min 0 W/m 10,5 km/h (2 Bft)
02.11.2014 05:14 12,2 C 11,1 C 96 % 1015,3 hPa 0,0 l/m 0 min 0 min 0 W/m 10,5 km/h (2 Bft)
02.11.2014 05:16 12,2 C 11,1 C 96 % 1015,2 hPa 0,0 l/m 0 min 0 min 0 W/m 8,4 km/h (2 Bft)
02.11.2014 05:18 12,2 C 11,1 C 96 % 1015,2 hPa 0,0 l/m 0 min 0 min 0 W/m 12,6 km/h (3 Bft)
02.11.2014 05:20 12,2 C 11,1 C 96 % 1015,2 hPa 0,0 l/m 0 min 0 min 0 W/m 10,5 km/h (2 Bft)
02.11.2014 05:22 12,2 C 11,1 C 96 % 1015,2 hPa 0,0 l/m 0 min 0 min 0 W/m 8,4 km/h (2 Bft)
02.11.2014 05:24 12,2 C 11,1 C 96 % 1015,1 hPa 0,0 l/m 0 min 0 min 0 W/m 10,5 km/h (2 Bft)
02.11.2014 05:26 12,2 C 11,1 C 96 % 1015,1 hPa 0,0 l/m 0 min 0 min 0 W/m 12,6 km/h (3 Bft)
02.11.2014 05:28 12,2 C 11,1 C 96 % 1015,1 hPa 0,0 l/m 0 min 0 min 0 W/m 12,6 km/h (3 Bft)
02.11.2014 05:30 12,2 C 11,1 C 96 % 1015,1 hPa 0,0 l/m 0 min 0 min 0 W/m 12,6 km/h (3 Bft)
02.11.2014 05:32 12,2 C 11,1 C 96 % 1015,1 hPa 0,0 l/m 0 min 0 min 0 W/m 12,6 km/h (3 Bft)
02.11.2014 05:34 12,2 C 11,1 C 96 % 1015,1 hPa 0,0 l/m 0 min 0 min 0 W/m 8,4 km/h (2 Bft)
02.11.2014 05:36 12,2 C 10,6 C 96 % 1015,1 hPa 0,0 l/m 0 min 0 min 0 W/m 10,5 km/h (2 Bft)
02.11.2014 05:38 12,2 C 10,6 C 96 % 1015,0 hPa 0,0 l/m 0 min 0 min 0 W/m 10,5 km/h (2 Bft)
02.11.2014 05:40 12,2 C 10,6 C 96 % 1015,0 hPa 0,0 l/m 0 min 0 min 0 W/m 10,5 km/h (2 Bft)
02.11.2014 05:42 12,2 C 10,6 C 96 % 1015,1 hPa 0,0 l/m 0 min 0 min 0 W/m 10,5 km/h (2 Bft)
02.11.2014 05:44 12,1 C 10,6 C 96 % 1015,1 hPa 0,0 l/m 0 min 0 min 0 W/m 12,6 km/h (3 Bft)
02.11.2014 05:46 12,1 C 10,6 C 96 % 1015,1 hPa 0,0 l/m 0 min 0 min 0 W/m 12,6 km/h (3 Bft)
02.11.2014 05:48 12,1 C 10,6 C 96 % 1015,1 hPa 0,0 l/m 0 min 0 min 0 W/m 8,4 km/h (2 Bft)
02.11.2014 05:50 12,1 C 10,6 C 96 % 1015,0 hPa 0,0 l/m 0 min 0 min 0 W/m 10,5 km/h (2 Bft)
02.11.2014 05:52 12,1 C 10,6 C 96 % 1015,1 hPa 0,0 l/m 0 min 0 min 0 W/m 8,4 km/h (2 Bft)
02.11.2014 05:54 12,1 C 10,6 C 96 % 1015,0 hPa 0,0 l/m 0 min 0 min 0 W/m 10,5 km/h (2 Bft)
02.11.2014 05:56 12,1 C 10,6 C 96 % 1015,1 hPa 0,0 l/m 0 min 0 min 0 W/m 10,5 km/h (2 Bft)
02.11.2014 05:58 12,1 C 10,6 C 96 % 1015,0 hPa 0,0 l/m 0 min 0 min 0 W/m 10,5 km/h (2 Bft)
02.11.2014 06:00 12,1 C 10,6 C 96 % 1015,0 hPa 0,0 l/m 0 min 0 min 0 W/m 8,4 km/h (2 Bft)
02.11.2014 06:02 12,1 C 10,6 C 96 % 1015,1 hPa 0,0 l/m 0 min 0 min 0 W/m 8,4 km/h (2 Bft)
02.11.2014 06:05 12,1 C 10,6 C 96 % 1015,1 hPa 0,0 l/m 0 min 0 min 0 W/m 10,5 km/h (2 Bft)
02.11.2014 06:08 12,1 C 10,6 C 96 % 1015,1 hPa 0,0 l/m 0 min 0 min 0 W/m 10,5 km/h (2 Bft)
02.11.2014 06:10 12,1 C 10,6 C 96 % 1015,0 hPa 0,0 l/m 0 min 0 min 0 W/m 10,5 km/h (2 Bft)
02.11.2014 06:12 12,1 C 10,6 C 96 % 1015,0 hPa 0,0 l/m 0 min 0 min 0 W/m 6,3 km/h (2 Bft)
02.11.2014 06:14 12,1 C 10,6 C 96 % 1015,0 hPa 0,0 l/m 0 min 0 min 0 W/m 10,5 km/h (2 Bft)
02.11.2014 06:16 12,1 C 10,6 C 96 % 1015,0 hPa 0,0 l/m 0 min 0 min 0 W/m 10,5 km/h (2 Bft)
02.11.2014 06:18 12,1 C 10,6 C 96 % 1015,0 hPa 0,0 l/m 0 min 0 min 0 W/m 10,5 km/h (2 Bft)
02.11.2014 06:20 12,1 C 10,6 C 96 % 1014,9 hPa 0,0 l/m 0 min 0 min 0 W/m 10,5 km/h (2 Bft)
02.11.2014 06:22 12,1 C 10,6 C 96 % 1014,9 hPa 0,0 l/m 0 min 0 min 0 W/m 8,4 km/h (2 Bft)
02.11.2014 06:24 12,1 C 11,1 C 96 % 1014,8 hPa 0,0 l/m 0 min 0 min 0 W/m 8,4 km/h (2 Bft)
02.11.2014 06:26 12,1 C 10,6 C 96 % 1014,8 hPa 0,0 l/m 0 min 0 min 0 W/m 10,5 km/h (2 Bft)
02.11.2014 06:28 12,1 C 10,6 C 96 % 1014,7 hPa 0,0 l/m 0 min 0 min 0 W/m 10,5 km/h (2 Bft)
02.11.2014 06:30 12,1 C 10,6 C 96 % 1014,8 hPa 0,0 l/m 0 min 0 min 0 W/m 8,4 km/h (2 Bft)
02.11.2014 06:32 12,1 C 10,6 C 96 % 1014,7 hPa 0,0 l/m 0 min 0 min 0 W/m 8,4 km/h (2 Bft)
02.11.2014 06:34 12,1 C 10,6 C 96 % 1014,8 hPa 0,0 l/m 0 min 0 min 0 W/m 8,4 km/h (2 Bft)
02.11.2014 06:36 12,1 C 10,6 C 96 % 1014,9 hPa 0,0 l/m 0 min 0 min 0 W/m 10,5 km/h (2 Bft)
02.11.2014 06:38 12,1 C 10,6 C 96 % 1014,7 hPa 0,0 l/m 0 min 0 min 0 W/m 6,3 km/h (2 Bft)
02.11.2014 06:40 12,1 C 10,6 C 96 % 1014,8 hPa 0,0 l/m 0 min 0 min 0 W/m 10,5 km/h (2 Bft)
02.11.2014 06:42 12,1 C 10,6 C 96 % 1014,7 hPa 0,0 l/m 0 min 0 min 0 W/m 8,4 km/h (2 Bft)
02.11.2014 06:44 12,1 C 10,6 C 96 % 1014,7 hPa 0,0 l/m 0 min 0 min 0 W/m 12,6 km/h (3 Bft)
02.11.2014 06:46 12,1 C 10,6 C 96 % 1014,7 hPa 0,0 l/m 0 min 0 min 0 W/m 8,4 km/h (2 Bft)
02.11.2014 06:48 12,1 C 10,6 C 96 % 1014,8 hPa 0,0 l/m 0 min 0 min 0 W/m 6,3 km/h (2 Bft)
02.11.2014 06:50 12,1 C 10,6 C 96 % 1014,7 hPa 0,0 l/m 0 min 0 min 0 W/m 8,4 km/h (2 Bft)
02.11.2014 06:52 12,1 C 10,6 C 96 % 1014,7 hPa 0,0 l/m 0 min 0 min 0 W/m 8,4 km/h (2 Bft)
02.11.2014 06:54 12,1 C 10,6 C 96 % 1014,7 hPa 0,0 l/m 0 min 0 min 0 W/m 10,5 km/h (2 Bft)
02.11.2014 06:56 12,1 C 10,6 C 96 % 1014,7 hPa 0,0 l/m 0 min 0 min 0 W/m 8,4 km/h (2 Bft)
02.11.2014 06:58 12,1 C 10,6 C 96 % 1014,7 hPa 0,0 l/m 0 min 0 min 0 W/m 8,4 km/h (2 Bft)
02.11.2014 07:00 12,0 C 10,6 C 96 % 1014,7 hPa 0,0 l/m 0 min 0 min 0 W/m 8,4 km/h (2 Bft)
02.11.2014 07:02 12,0 C 10,6 C 96 % 1014,6 hPa 0,0 l/m 0 min 0 min 0 W/m 6,3 km/h (2 Bft)
02.11.2014 07:04 12,0 C 10,6 C 96 % 1014,6 hPa 0,0 l/m 0 min 0 min 0 W/m 8,4 km/h (2 Bft)
02.11.2014 07:06 12,0 C 10,6 C 96 % 1014,7 hPa 0,0 l/m 0 min 0 min 0 W/m 6,3 km/h (2 Bft)
02.11.2014 07:08 12,0 C 10,6 C 96 % 1014,6 hPa 0,0 l/m 0 min 0 min 0 W/m 6,3 km/h (2 Bft)
02.11.2014 07:10 12,0 C 10,6 C 96 % 1014,6 hPa 0,0 l/m 0 min 0 min 0 W/m 8,4 km/h (2 Bft)
02.11.2014 07:12 12,0 C 10,6 C 96 % 1014,7 hPa 0,0 l/m 0 min 0 min 0 W/m 10,5 km/h (2 Bft)
02.11.2014 07:14 12,0 C 10,6 C 96 % 1014,6 hPa 0,0 l/m 0 min 0 min 0 W/m 6,3 km/h (2 Bft)
02.11.2014 07:16 12,0 C 10,6 C 96 % 1014,5 hPa 0,0 l/m 0 min 0 min 0 W/m 8,4 km/h (2 Bft)
02.11.2014 07:18 11,9 C 10,6 C 96 % 1014,6 hPa 0,0 l/m 0 min 0 min 0 W/m 10,5 km/h (2 Bft)
02.11.2014 07:20 11,9 C 10,6 C 96 % 1014,6 hPa 0,0 l/m 0 min 0 min 0 W/m 6,3 km/h (2 Bft)
02.11.2014 07:22 11,9 C 10,6 C 96 % 1014,6 hPa 0,0 l/m 0 min 0 min 0 W/m 6,3 km/h (2 Bft)
02.11.2014 07:24 11,9 C 10,6 C 96 % 1014,6 hPa 0,0 l/m 0 min 0 min 0 W/m 8,4 km/h (2 Bft)
02.11.2014 07:26 11,9 C 10,6 C 96 % 1014,7 hPa 0,0 l/m 0 min 0 min 0 W/m 8,4 km/h (2 Bft)
02.11.2014 07:28 11,9 C 10,6 C 96 % 1014,6 hPa 0,0 l/m 0 min 0 min 0 W/m 6,3 km/h (2 Bft)
02.11.2014 07:30 11,9 C 10,6 C 96 % 1014,6 hPa 0,0 l/m 0 min 0 min 3 W/m 8,4 km/h (2 Bft)
02.11.2014 07:32 11,9 C 10,6 C 96 % 1014,6 hPa 0,0 l/m 0 min 0 min 5 W/m 10,5 km/h (2 Bft)
02.11.2014 07:34 11,9 C 10,6 C 96 % 1014,6 hPa 0,0 l/m 0 min 0 min 5 W/m 8,4 km/h (2 Bft)
02.11.2014 07:36 11,9 C 10,6 C 96 % 1014,6 hPa 0,0 l/m 0 min 0 min 6 W/m 8,4 km/h (2 Bft)
02.11.2014 07:38 11,9 C 10,6 C 96 % 1014,5 hPa 0,0 l/m 0 min 0 min 7 W/m 8,4 km/h (2 Bft)
02.11.2014 07:40 11,9 C 10,6 C 96 % 1014,5 hPa 0,0 l/m 0 min 0 min 7 W/m 10,5 km/h (2 Bft)
02.11.2014 07:42 11,9 C 10,6 C 96 % 1014,5 hPa 0,0 l/m 0 min 0 min 8 W/m 8,4 km/h (2 Bft)
02.11.2014 07:44 11,9 C 10,6 C 96 % 1014,5 hPa 0,0 l/m 0 min 0 min 9 W/m 12,6 km/h (3 Bft)
02.11.2014 07:46 11,9 C 10,0 C 96 % 1014,6 hPa 0,0 l/m 0 min 0 min 9 W/m 10,5 km/h (2 Bft)
02.11.2014 07:48 11,9 C 10,0 C 96 % 1014,6 hPa 0,0 l/m 0 min 0 min 10 W/m 8,4 km/h (2 Bft)
02.11.2014 07:50 11,9 C 10,0 C 96 % 1014,6 hPa 0,0 l/m 0 min 0 min 11 W/m 8,4 km/h (2 Bft)
02.11.2014 07:52 11,9 C 10,0 C 96 % 1014,6 hPa 0,0 l/m 0 min 0 min 11 W/m 8,4 km/h (2 Bft)
02.11.2014 07:54 11,9 C 10,6 C 96 % 1014,6 hPa 0,0 l/m 0 min 0 min 12 W/m 8,4 km/h (2 Bft)
02.11.2014 07:56 11,9 C 10,6 C 96 % 1014,6 hPa 0,0 l/m 0 min 0 min 13 W/m 10,5 km/h (2 Bft)
02.11.2014 07:58 11,9 C 10,6 C 96 % 1014,6 hPa 0,0 l/m 0 min 0 min 15 W/m 6,3 km/h (2 Bft)
02.11.2014 08:00 11,9 C 10,6 C 96 % 1014,6 hPa 0,0 l/m 0 min 0 min 18 W/m 8,4 km/h (2 Bft)
02.11.2014 08:02 11,9 C 10,6 C 96 % 1014,6 hPa 0,0 l/m 0 min 0 min 22 W/m 10,5 km/h (2 Bft)
02.11.2014 08:04 11,9 C 10,6 C 96 % 1014,6 hPa 0,0 l/m 0 min 0 min 25 W/m 8,4 km/h (2 Bft)
02.11.2014 08:06 11,9 C 10,6 C 96 % 1014,6 hPa 0,0 l/m 0 min 0 min 27 W/m 8,4 km/h (2 Bft)
02.11.2014 08:08 11,9 C 10,6 C 96 % 1014,6 hPa 0,0 l/m 0 min 0 min 28 W/m 8,4 km/h (2 Bft)
02.11.2014 08:10 11,9 C 10,6 C 96 % 1014,5 hPa 0,0 l/m 0 min 0 min 28 W/m 10,5 km/h (2 Bft)
02.11.2014 08:12 11,9 C 10,6 C 96 % 1014,5 hPa 0,0 l/m 0 min 0 min 29 W/m 8,4 km/h (2 Bft)
02.11.2014 08:14 11,9 C 10,6 C 96 % 1014,6 hPa 0,0 l/m 0 min 0 min 30 W/m 6,3 km/h (2 Bft)
02.11.2014 08:16 11,9 C 10,6 C 96 % 1014,6 hPa 0,0 l/m 0 min 0 min 32 W/m 8,4 km/h (2 Bft)
02.11.2014 08:18 11,9 C 10,6 C 96 % 1014,6 hPa 0,0 l/m 0 min 0 min 33 W/m 8,4 km/h (2 Bft)
02.11.2014 08:20 11,9 C 10,6 C 96 % 1014,7 hPa 0,0 l/m 0 min 0 min 33 W/m 12,6 km/h (3 Bft)
02.11.2014 08:22 11,9 C 10,6 C 96 % 1014,6 hPa 0,0 l/m 0 min 0 min 33 W/m 10,5 km/h (2 Bft)
02.11.2014 08:24 11,9 C 10,6 C 96 % 1014,6 hPa 0,0 l/m 0 min 0 min 33 W/m 10,5 km/h (2 Bft)
02.11.2014 08:26 11,9 C 10,6 C 96 % 1014,6 hPa 0,0 l/m 0 min 0 min 32 W/m 8,4 km/h (2 Bft)
02.11.2014 08:28 11,9 C 10,6 C 96 % 1014,6 hPa 0,0 l/m 0 min 0 min 29 W/m 10,5 km/h (2 Bft)
02.11.2014 08:30 11,9 C 10,6 C 96 % 1014,6 hPa 0,0 l/m 0 min 0 min 26 W/m 10,5 km/h (2 Bft)
02.11.2014 08:32 11,9 C 10,6 C 96 % 1014,6 hPa 0,0 l/m 0 min 0 min 26 W/m 10,5 km/h (2 Bft)
02.11.2014 08:34 11,9 C 10,6 C 96 % 1014,6 hPa 0,0 l/m 0 min 0 min 26 W/m 8,4 km/h (2 Bft)
02.11.2014 08:36 11,9 C 10,6 C 96 % 1014,6 hPa 0,0 l/m 0 min 0 min 25 W/m 10,5 km/h (2 Bft)
02.11.2014 08:38 11,9 C 10,6 C 96 % 1014,6 hPa 0,0 l/m 0 min 0 min 25 W/m 12,6 km/h (3 Bft)
02.11.2014 08:40 11,9 C 10,6 C 96 % 1014,6 hPa 0,0 l/m 0 min 0 min 24 W/m 10,5 km/h (2 Bft)
02.11.2014 08:42 11,9 C 10,6 C 96 % 1014,6 hPa 0,0 l/m 0 min 0 min 23 W/m 8,4 km/h (2 Bft)
02.11.2014 08:44 11,9 C 10,6 C 96 % 1014,6 hPa 0,0 l/m 0 min 0 min 21 W/m 10,5 km/h (2 Bft)
02.11.2014 08:46 11,9 C 10,6 C 96 % 1014,6 hPa 0,0 l/m 0 min 0 min 21 W/m 12,6 km/h (3 Bft)
02.11.2014 08:48 11,9 C 10,6 C 96 % 1014,6 hPa 0,0 l/m 0 min 0 min 23 W/m 12,6 km/h (3 Bft)
02.11.2014 08:50 11,9 C 10,6 C 96 % 1014,6 hPa 0,0 l/m 0 min 0 min 26 W/m 12,6 km/h (3 Bft)
02.11.2014 08:52 11,9 C 10,6 C 96 % 1014,6 hPa 0,0 l/m 0 min 0 min 29 W/m 10,5 km/h (2 Bft)
02.11.2014 08:54 11,9 C 10,6 C 96 % 1014,6 hPa 0,0 l/m 0 min 0 min 32 W/m 10,5 km/h (2 Bft)
02.11.2014 08:56 11,9 C 10,6 C 96 % 1014,6 hPa 0,0 l/m 0 min 0 min 36 W/m 12,6 km/h (3 Bft)
02.11.2014 08:58 11,9 C 10,6 C 96 % 1014,6 hPa 0,0 l/m 0 min 0 min 42 W/m 12,6 km/h (3 Bft)
02.11.2014 09:00 11,9 C 10,6 C 96 % 1014,6 hPa 0,0 l/m 0 min 0 min 46 W/m 12,6 km/h (3 Bft)
02.11.2014 09:02 11,9 C 10,6 C 96 % 1014,6 hPa 0,0 l/m 0 min 0 min 47 W/m 12,6 km/h (3 Bft)
02.11.2014 09:04 11,9 C 10,6 C 96 % 1014,6 hPa 0,0 l/m 0 min 0 min 50 W/m 14,6 km/h (3 Bft)
02.11.2014 09:06 12,0 C 10,6 C 96 % 1014,6 hPa 0,0 l/m 0 min 0 min 51 W/m 12,6 km/h (3 Bft)
02.11.2014 09:08 12,0 C 11,1 C 97 % 1014,6 hPa 0,0 l/m 0 min 0 min 57 W/m 14,6 km/h (3 Bft)
02.11.2014 09:10 12,0 C 11,1 C 97 % 1014,5 hPa 0,0 l/m 2 min 0 min 135 W/m 18,8 km/h (3 Bft)
02.11.2014 09:12 12,1 C 11,1 C 97 % 1014,5 hPa 0,0 l/m 2 min 0 min 177 W/m 12,6 km/h (3 Bft)
02.11.2014 09:14 12,1 C 11,1 C 97 % 1014,6 hPa 0,0 l/m 2 min 0 min 184 W/m 14,6 km/h (3 Bft)
02.11.2014 09:16 12,2 C 11,7 C 97 % 1014,6 hPa 0,0 l/m 2 min 0 min 191 W/m 16,7 km/h (3 Bft)
02.11.2014 09:18 12,2 C 11,7 C 97 % 1014,5 hPa 0,0 l/m 2 min 0 min 212 W/m 14,6 km/h (3 Bft)
02.11.2014 09:20 12,3 C 11,7 C 97 % 1014,6 hPa 0,0 l/m 2 min 0 min 225 W/m 16,7 km/h (3 Bft)
02.11.2014 09:22 12,4 C 11,7 C 97 % 1014,6 hPa 0,0 l/m 2 min 0 min 230 W/m 16,7 km/h (3 Bft)
02.11.2014 09:24 12,5 C 11,7 C 97 % 1014,6 hPa 0,0 l/m 2 min 0 min 230 W/m 16,7 km/h (3 Bft)
02.11.2014 09:26 12,6 C 12,2 C 97 % 1014,6 hPa 0,0 l/m 2 min 0 min 198 W/m 14,6 km/h (3 Bft)
02.11.2014 09:28 12,7 C 12,2 C 97 % 1014,6 hPa 0,0 l/m 2 min 0 min 147 W/m 18,8 km/h (3 Bft)
02.11.2014 09:30 12,8 C 12,2 C 97 % 1014,5 hPa 0,0 l/m 2 min 0 min 206 W/m 16,7 km/h (3 Bft)
02.11.2014 09:32 12,8 C 12,2 C 97 % 1014,5 hPa 0,0 l/m 2 min 0 min 221 W/m 14,6 km/h (3 Bft)
02.11.2014 09:34 12,9 C 12,2 C 97 % 1014,4 hPa 0,0 l/m 2 min 0 min 220 W/m 14,6 km/h (3 Bft)
02.11.2014 09:36 13,0 C 12,2 C 97 % 1014,5 hPa 0,0 l/m 2 min 0 min 223 W/m 16,7 km/h (3 Bft)
02.11.2014 09:38 13,1 C 12,2 C 97 % 1014,5 hPa 0,0 l/m 2 min 0 min 228 W/m 16,7 km/h (3 Bft)
02.11.2014 09:40 13,2 C 12,2 C 97 % 1014,4 hPa 0,0 l/m 2 min 0 min 232 W/m 20,9 km/h (4 Bft)
02.11.2014 09:42 13,3 C 12,2 C 97 % 1014,4 hPa 0,0 l/m 2 min 0 min 237 W/m 16,7 km/h (3 Bft)
02.11.2014 09:44 13,3 C 12,2 C 97 % 1014,4 hPa 0,0 l/m 2 min 0 min 241 W/m 14,6 km/h (3 Bft)
02.11.2014 09:46 13,4 C 12,2 C 97 % 1014,5 hPa 0,0 l/m 2 min 0 min 246 W/m 20,9 km/h (4 Bft)
02.11.2014 09:48 13,5 C 12,8 C 97 % 1014,5 hPa 0,0 l/m 2 min 0 min 250 W/m 16,7 km/h (3 Bft)
02.11.2014 09:50 13,6 C 12,8 C 97 % 1014,4 hPa 0,0 l/m 2 min 0 min 254 W/m 20,9 km/h (4 Bft)
02.11.2014 09:52 13,7 C 12,8 C 97 % 1014,5 hPa 0,0 l/m 2 min 0 min 259 W/m 16,7 km/h (3 Bft)
02.11.2014 09:54 13,8 C 12,8 C 97 % 1014,5 hPa 0,0 l/m 2 min 0 min 266 W/m 16,7 km/h (3 Bft)
02.11.2014 09:56 13,8 C 12,8 C 97 % 1014,4 hPa 0,0 l/m 2 min 0 min 274 W/m 14,6 km/h (3 Bft)
02.11.2014 09:58 13,9 C 12,8 C 97 % 1014,3 hPa 0,0 l/m 2 min 0 min 282 W/m 16,7 km/h (3 Bft)
02.11.2014 10:00 14,1 C 13,3 C 97 % 1014,3 hPa 0,0 l/m 2 min 0 min 293 W/m 20,9 km/h (4 Bft)
02.11.2014 10:02 14,2 C 13,3 C 97 % 1014,3 hPa 0,0 l/m 2 min 0 min 302 W/m 18,8 km/h (3 Bft)
02.11.2014 10:04 14,2 C 13,3 C 96 % 1014,3 hPa 0,0 l/m 2 min 0 min 317 W/m 16,7 km/h (3 Bft)
02.11.2014 10:06 14,3 C 13,9 C 96 % 1014,3 hPa 0,0 l/m 2 min 0 min 376 W/m 25,1 km/h (4 Bft)
02.11.2014 10:08 14,4 C 13,9 C 96 % 1014,2 hPa 0,0 l/m 2 min 0 min 383 W/m 18,8 km/h (3 Bft)
02.11.2014 10:10 14,6 C 13,9 C 96 % 1014,2 hPa 0,0 l/m 2 min 0 min 374 W/m 20,9 km/h (4 Bft)
02.11.2014 10:12 14,7 C 13,9 C 95 % 1014,2 hPa 0,0 l/m 0 min 0 min 147 W/m 20,9 km/h (4 Bft)
02.11.2014 10:14 14,7 C 13,9 C 95 % 1014,2 hPa 0,0 l/m 2 min 0 min 178 W/m 16,7 km/h (3 Bft)
02.11.2014 10:16 14,8 C 13,9 C 94 % 1014,2 hPa 0,0 l/m 2 min 0 min 163 W/m 16,7 km/h (3 Bft)
02.11.2014 10:18 14,9 C 13,9 C 94 % 1014,2 hPa 0,0 l/m 0 min 0 min 142 W/m 20,9 km/h (4 Bft)
02.11.2014 10:20 14,9 C 13,9 C 93 % 1014,2 hPa 0,0 l/m 0 min 0 min 151 W/m 18,8 km/h (3 Bft)
02.11.2014 10:22 15,0 C 13,9 C 93 % 1014,1 hPa 0,0 l/m 0 min 0 min 156 W/m 18,8 km/h (3 Bft)
02.11.2014 10:24 15,0 C 13,9 C 92 % 1014,1 hPa 0,0 l/m 2 min 0 min 176 W/m 20,9 km/h (4 Bft)
02.11.2014 10:26 15,1 C 13,9 C 92 % 1014,1 hPa 0,0 l/m 2 min 0 min 298 W/m 20,9 km/h (4 Bft)
02.11.2014 10:28 15,2 C 13,9 C 91 % 1014,2 hPa 0,0 l/m 2 min 0 min 373 W/m 16,7 km/h (3 Bft)
02.11.2014 10:30 15,2 C 13,9 C 91 % 1014,2 hPa 0,0 l/m 2 min 0 min 355 W/m 12,6 km/h (3 Bft)
02.11.2014 10:32 15,3 C 13,9 C 91 % 1014,2 hPa 0,0 l/m 2 min 0 min 333 W/m 12,6 km/h (3 Bft)
02.11.2014 10:34 15,4 C 13,9 C 91 % 1014,2 hPa 0,0 l/m 2 min 0 min 324 W/m 16,7 km/h (3 Bft)
02.11.2014 10:36 15,5 C 13,9 C 91 % 1014,2 hPa 0,0 l/m 2 min 0 min 324 W/m 25,1 km/h (4 Bft)
02.11.2014 10:38 15,6 C 13,9 C 90 % 1014,2 hPa 0,0 l/m 2 min 0 min 330 W/m 14,6 km/h (3 Bft)
02.11.2014 10:40 15,7 C 13,9 C 90 % 1014,2 hPa 0,0 l/m 2 min 0 min 335 W/m 16,7 km/h (3 Bft)
02.11.2014 10:42 15,8 C 13,9 C 90 % 1014,1 hPa 0,0 l/m 2 min 0 min 338 W/m 14,6 km/h (3 Bft)
02.11.2014 10:44 15,9 C 13,9 C 89 % 1014,1 hPa 0,0 l/m 2 min 0 min 341 W/m 12,6 km/h (3 Bft)
02.11.2014 10:46 16,0 C 13,9 C 89 % 1014,1 hPa 0,0 l/m 2 min 0 min 344 W/m 14,6 km/h (3 Bft)
02.11.2014 10:48 16,1 C 13,9 C 89 % 1014,1 hPa 0,0 l/m 2 min 0 min 342 W/m 14,6 km/h (3 Bft)
02.11.2014 10:50 16,2 C 14,4 C 88 % 1014,1 hPa 0,0 l/m 2 min 0 min 344 W/m 12,6 km/h (3 Bft)
02.11.2014 10:52 16,3 C 14,4 C 88 % 1014,0 hPa 0,0 l/m 2 min 0 min 349 W/m 12,6 km/h (3 Bft)
02.11.2014 10:54 16,4 C 14,4 C 88 % 1014,0 hPa 0,0 l/m 2 min 0 min 353 W/m 10,5 km/h (2 Bft)
02.11.2014 10:56 16,6 C 14,4 C 87 % 1014,0 hPa 0,0 l/m 2 min 0 min 354 W/m 16,7 km/h (3 Bft)
02.11.2014 10:58 16,6 C 14,4 C 86 % 1013,9 hPa 0,0 l/m 2 min 0 min 355 W/m 14,6 km/h (3 Bft)
02.11.2014 11:00 16,7 C 14,4 C 86 % 1013,9 hPa 0,0 l/m 2 min 0 min 359 W/m 16,7 km/h (3 Bft)
02.11.2014 11:02 16,8 C 15,0 C 84 % 1013,8 hPa 0,0 l/m 2 min 0 min 360 W/m 16,7 km/h (3 Bft)
02.11.2014 11:04 16,9 C 15,0 C 84 % 1013,8 hPa 0,0 l/m 2 min 0 min 363 W/m 18,8 km/h (3 Bft)
02.11.2014 11:06 17,0 C 15,0 C 83 % 1013,8 hPa 0,0 l/m 2 min 0 min 366 W/m 12,6 km/h (3 Bft)
02.11.2014 11:08 17,1 C 15,0 C 82 % 1013,8 hPa 0,0 l/m 2 min 0 min 368 W/m 14,6 km/h (3 Bft)
02.11.2014 11:10 17,2 C 15,0 C 82 % 1013,8 hPa 0,0 l/m 2 min 0 min 371 W/m 27,2 km/h (4 Bft)
02.11.2014 11:12 17,3 C 15,0 C 81 % 1013,7 hPa 0,0 l/m 2 min 0 min 374 W/m 18,8 km/h (3 Bft)
02.11.2014 11:14 17,3 C 15,0 C 80 % 1013,7 hPa 0,0 l/m 2 min 0 min 375 W/m 23,0 km/h (4 Bft)
02.11.2014 11:16 17,4 C 15,0 C 79 % 1013,7 hPa 0,0 l/m 2 min 0 min 374 W/m 18,8 km/h (3 Bft)
02.11.2014 11:18 17,5 C 15,0 C 79 % 1013,6 hPa 0,0 l/m 2 min 0 min 377 W/m 16,7 km/h (3 Bft)
02.11.2014 11:20 17,6 C 15,0 C 78 % 1013,6 hPa 0,0 l/m 2 min 0 min 377 W/m 18,8 km/h (3 Bft)
02.11.2014 11:22 17,6 C 15,0 C 78 % 1013,7 hPa 0,0 l/m 2 min 0 min 378 W/m 18,8 km/h (3 Bft)
02.11.2014 11:24 17,7 C 15,0 C 78 % 1013,6 hPa 0,0 l/m 2 min 0 min 379 W/m 27,2 km/h (4 Bft)
02.11.2014 11:26 17,7 C 15,0 C 78 % 1013,5 hPa 0,0 l/m 2 min 0 min 382 W/m 18,8 km/h (3 Bft)
02.11.2014 11:28 17,8 C 15,0 C 77 % 1013,6 hPa 0,0 l/m 2 min 0 min 383 W/m 23,0 km/h (4 Bft)
02.11.2014 11:30 17,8 C 15,0 C 77 % 1013,6 hPa 0,0 l/m 2 min 0 min 385 W/m 18,8 km/h (3 Bft)
02.11.2014 11:32 17,9 C 15,6 C 77 % 1013,5 hPa 0,0 l/m 2 min 0 min 386 W/m 20,9 km/h (4 Bft)
02.11.2014 11:34 18,0 C 15,6 C 77 % 1013,5 hPa 0,0 l/m 2 min 0 min 388 W/m 18,8 km/h (3 Bft)
02.11.2014 11:36 18,1 C 15,6 C 77 % 1013,5 hPa 0,0 l/m 2 min 0 min 388 W/m 23,0 km/h (4 Bft)
02.11.2014 11:38 18,1 C 15,6 C 77 % 1013,5 hPa 0,0 l/m 2 min 0 min 392 W/m 10,5 km/h (2 Bft)
02.11.2014 11:40 18,2 C 15,6 C 77 % 1013,4 hPa 0,0 l/m 2 min 0 min 391 W/m 14,6 km/h (3 Bft)
02.11.2014 11:42 18,3 C 15,6 C 76 % 1013,4 hPa 0,0 l/m 2 min 0 min 394 W/m 20,9 km/h (4 Bft)
02.11.2014 11:44 18,4 C 15,6 C 75 % 1013,4 hPa 0,0 l/m 2 min 0 min 399 W/m 25,1 km/h (4 Bft)
02.11.2014 11:46 18,4 C 15,6 C 75 % 1013,4 hPa 0,0 l/m 2 min 0 min 398 W/m 20,9 km/h (4 Bft)
02.11.2014 11:48 18,6 C 15,6 C 75 % 1013,4 hPa 0,0 l/m 2 min 0 min 403 W/m 20,9 km/h (4 Bft)
02.11.2014 11:50 18,6 C 15,6 C 75 % 1013,4 hPa 0,0 l/m 2 min 0 min 404 W/m 16,7 km/h (3 Bft)
02.11.2014 11:52 18,7 C 16,1 C 74 % 1013,4 hPa 0,0 l/m 2 min 0 min 408 W/m 16,7 km/h (3 Bft)
02.11.2014 11:54 18,7 C 16,1 C 73 % 1013,4 hPa 0,0 l/m 2 min 0 min 407 W/m 14,6 km/h (3 Bft)
02.11.2014 11:56 18,8 C 16,1 C 73 % 1013,3 hPa 0,0 l/m 2 min 0 min 398 W/m 23,0 km/h (4 Bft)
02.11.2014 11:58 18,8 C 16,1 C 72 % 1013,3 hPa 0,0 l/m 2 min 0 min 402 W/m 16,7 km/h (3 Bft)
02.11.2014 12:00 18,9 C 16,1 C 72 % 1013,2 hPa 0,0 l/m 2 min 0 min 402 W/m 16,7 km/h (3 Bft)
02.11.2014 12:02 18,9 C 16,1 C 72 % 1013,2 hPa 0,0 l/m 2 min 0 min 398 W/m 18,8 km/h (3 Bft)
02.11.2014 12:05 19,0 C 16,1 C 72 % 1013,0 hPa 0,0 l/m 2 min 0 min 399 W/m 16,7 km/h (3 Bft)
02.11.2014 12:06 19,1 C 16,1 C 72 % 1013,0 hPa 0,0 l/m 1 min 0 min 400 W/m 16,7 km/h (3 Bft)
02.11.2014 12:08 19,1 C 16,1 C 71 % 1013,0 hPa 0,0 l/m 2 min 0 min 400 W/m 20,9 km/h (4 Bft)
02.11.2014 12:10 19,2 C 16,1 C 71 % 1013,0 hPa 0,0 l/m 2 min 0 min 401 W/m 16,7 km/h (3 Bft)
02.11.2014 12:12 19,2 C 16,1 C 71 % 1013,0 hPa 0,0 l/m 2 min 0 min 403 W/m 12,6 km/h (3 Bft)
02.11.2014 12:14 19,3 C 16,1 C 71 % 1013,0 hPa 0,0 l/m 2 min 0 min 403 W/m 12,6 km/h (3 Bft)
02.11.2014 12:16 19,4 C 16,1 C 71 % 1012,9 hPa 0,0 l/m 2 min 0 min 404 W/m 18,8 km/h (3 Bft)
02.11.2014 12:18 19,4 C 16,1 C 69 % 1012,9 hPa 0,0 l/m 2 min 0 min 404 W/m 29,3 km/h (5 Bft)
02.11.2014 12:20 19,4 C 16,7 C 68 % 1012,9 hPa 0,0 l/m 2 min 0 min 404 W/m 25,1 km/h (4 Bft)
02.11.2014 12:22 19,4 C 16,7 C 66 % 1012,8 hPa 0,0 l/m 2 min 0 min 402 W/m 35,6 km/h (5 Bft)
02.11.2014 12:24 19,4 C 16,7 C 65 % 1012,8 hPa 0,0 l/m 2 min 0 min 403 W/m 23,0 km/h (4 Bft)
02.11.2014 12:26 19,4 C 16,7 C 65 % 1012,8 hPa 0,0 l/m 2 min 0 min 401 W/m 23,0 km/h (4 Bft)
02.11.2014 12:28 19,4 C 16,7 C 65 % 1012,7 hPa 0,0 l/m 2 min 0 min 399 W/m 25,1 km/h (4 Bft)
02.11.2014 12:30 19,4 C 16,7 C 65 % 1012,7 hPa 0,0 l/m 2 min 0 min 398 W/m 14,6 km/h (3 Bft)
02.11.2014 12:32 19,5 C 16,7 C 65 % 1012,7 hPa 0,0 l/m 2 min 0 min 397 W/m 25,1 km/h (4 Bft)
02.11.2014 12:34 19,5 C 16,7 C 65 % 1012,7 hPa 0,0 l/m 2 min 0 min 397 W/m 18,8 km/h (3 Bft)
02.11.2014 12:36 19,5 C 16,7 C 65 % 1012,6 hPa 0,0 l/m 2 min 0 min 396 W/m 16,7 km/h (3 Bft)
02.11.2014 12:38 19,6 C 16,7 C 65 % 1012,6 hPa 0,0 l/m 2 min 0 min 396 W/m 12,6 km/h (3 Bft)
02.11.2014 12:40 19,6 C 16,7 C 66 % 1012,6 hPa 0,0 l/m 2 min 0 min 394 W/m 18,8 km/h (3 Bft)
02.11.2014 12:42 19,6 C 16,7 C 65 % 1012,6 hPa 0,0 l/m 2 min 0 min 392 W/m 20,9 km/h (4 Bft)
02.11.2014 12:44 19,7 C 16,7 C 65 % 1012,5 hPa 0,0 l/m 2 min 0 min 394 W/m 25,1 km/h (4 Bft)
02.11.2014 12:46 19,7 C 16,7 C 64 % 1012,4 hPa 0,0 l/m 2 min 0 min 393 W/m 18,8 km/h (3 Bft)
02.11.2014 12:48 19,7 C 16,7 C 65 % 1012,4 hPa 0,0 l/m 2 min 0 min 390 W/m 20,9 km/h (4 Bft)
02.11.2014 12:50 19,7 C 16,7 C 64 % 1012,4 hPa 0,0 l/m 2 min 0 min 388 W/m 39,7 km/h (6 Bft)
02.11.2014 12:52 19,8 C 16,7 C 65 % 1012,3 hPa 0,0 l/m 2 min 0 min 387 W/m 27,2 km/h (4 Bft)
02.11.2014 12:54 19,8 C 17,2 C 64 % 1012,3 hPa 0,0 l/m 2 min 0 min 387 W/m 29,3 km/h (5 Bft)
02.11.2014 12:56 19,8 C 16,7 C 64 % 1012,3 hPa 0,0 l/m 2 min 0 min 383 W/m 25,1 km/h (4 Bft)
02.11.2014 12:58 19,8 C 17,2 C 63 % 1012,2 hPa 0,0 l/m 2 min 0 min 380 W/m 25,1 km/h (4 Bft)
02.11.2014 13:00 19,8 C 17,2 C 64 % 1012,2 hPa 0,0 l/m 2 min 0 min 380 W/m 20,9 km/h (4 Bft)
02.11.2014 13:02 19,8 C 17,2 C 65 % 1012,1 hPa 0,0 l/m 2 min 0 min 379 W/m 16,7 km/h (3 Bft)
02.11.2014 13:04 19,9 C 17,2 C 65 % 1012,1 hPa 0,0 l/m 2 min 0 min 378 W/m 20,9 km/h (4 Bft)
02.11.2014 13:06 19,9 C 16,7 C 64 % 1012,0 hPa 0,0 l/m 2 min 0 min 377 W/m 25,1 km/h (4 Bft)
02.11.2014 13:08 19,9 C 16,7 C 64 % 1012,1 hPa 0,0 l/m 2 min 0 min 375 W/m 18,8 km/h (3 Bft)
02.11.2014 13:10 19,9 C 17,2 C 65 % 1012,1 hPa 0,0 l/m 2 min 0 min 374 W/m 12,6 km/h (3 Bft)
02.11.2014 13:12 19,9 C 17,2 C 65 % 1012,0 hPa 0,0 l/m 2 min 0 min 371 W/m 8,4 km/h (2 Bft)
02.11.2014 13:14 20,0 C 17,2 C 65 % 1012,0 hPa 0,0 l/m 2 min 0 min 371 W/m 10,5 km/h (2 Bft)
02.11.2014 13:16 20,1 C 17,2 C 65 % 1012,0 hPa 0,0 l/m 2 min 0 min 370 W/m 20,9 km/h (4 Bft)
02.11.2014 13:18 20,1 C 17,2 C 63 % 1012,1 hPa 0,0 l/m 2 min 0 min 368 W/m 39,7 km/h (6 Bft)
02.11.2014 13:20 20,1 C 17,2 C 63 % 1012,0 hPa 0,0 l/m 2 min 0 min 369 W/m 27,2 km/h (4 Bft)
02.11.2014 13:22 20,1 C 17,2 C 63 % 1012,0 hPa 0,0 l/m 2 min 0 min 370 W/m 37,7 km/h (5 Bft)
02.11.2014 13:24 20,1 C 17,2 C 63 % 1011,9 hPa 0,0 l/m 2 min 0 min 376 W/m 29,3 km/h (5 Bft)
02.11.2014 13:26 20,1 C 17,2 C 63 % 1012,0 hPa 0,0 l/m 2 min 0 min 372 W/m 23,0 km/h (4 Bft)
02.11.2014 13:28 20,1 C 17,2 C 64 % 1011,9 hPa 0,0 l/m 2 min 0 min 366 W/m 16,7 km/h (3 Bft)
02.11.2014 13:30 20,1 C 17,2 C 64 % 1011,9 hPa 0,0 l/m 2 min 0 min 359 W/m 35,6 km/h (5 Bft)
02.11.2014 13:32 20,1 C 17,2 C 64 % 1011,8 hPa 0,0 l/m 2 min 0 min 357 W/m 20,9 km/h (4 Bft)
02.11.2014 13:34 20,1 C 17,2 C 64 % 1011,9 hPa 0,0 l/m 2 min 0 min 353 W/m 33,5 km/h (5 Bft)
02.11.2014 13:36 20,1 C 17,2 C 64 % 1011,8 hPa 0,0 l/m 2 min 0 min 348 W/m 23,0 km/h (4 Bft)
02.11.2014 13:38 20,1 C 17,2 C 64 % 1011,8 hPa 0,0 l/m 2 min 0 min 345 W/m 23,0 km/h (4 Bft)
02.11.2014 13:40 20,1 C 17,2 C 64 % 1011,8 hPa 0,0 l/m 2 min 0 min 340 W/m 27,2 km/h (4 Bft)
02.11.2014 13:42 20,1 C 17,2 C 63 % 1011,8 hPa 0,0 l/m 2 min 0 min 338 W/m 27,2 km/h (4 Bft)
02.11.2014 13:44 20,1 C 17,2 C 64 % 1011,7 hPa 0,0 l/m 2 min 0 min 339 W/m 29,3 km/h (5 Bft)
02.11.2014 13:46 20,1 C 17,2 C 64 % 1011,6 hPa 0,0 l/m 2 min 0 min 342 W/m 16,7 km/h (3 Bft)
02.11.2014 13:48 20,2 C 17,2 C 64 % 1011,6 hPa 0,0 l/m 2 min 0 min 336 W/m 14,6 km/h (3 Bft)
02.11.2014 13:50 20,2 C 17,2 C 64 % 1011,5 hPa 0,0 l/m 2 min 0 min 335 W/m 18,8 km/h (3 Bft)
02.11.2014 13:52 20,2 C 17,2 C 64 % 1011,5 hPa 0,0 l/m 2 min 0 min 336 W/m 14,6 km/h (3 Bft)
02.11.2014 13:54 20,2 C 17,2 C 64 % 1011,5 hPa 0,0 l/m 2 min 0 min 332 W/m 20,9 km/h (4 Bft)
02.11.2014 13:56 20,2 C 17,8 C 63 % 1011,4 hPa 0,0 l/m 2 min 0 min 320 W/m 20,9 km/h (4 Bft)
02.11.2014 13:58 20,3 C 17,2 C 64 % 1011,5 hPa 0,0 l/m 2 min 0 min 319 W/m 25,1 km/h (4 Bft)
02.11.2014 14:00 20,3 C 17,8 C 63 % 1011,4 hPa 0,0 l/m 2 min 0 min 327 W/m 33,5 km/h (5 Bft)
02.11.2014 14:02 20,3 C 17,8 C 64 % 1011,4 hPa 0,0 l/m 2 min 0 min 337 W/m 14,6 km/h (3 Bft)
02.11.2014 14:04 20,3 C 17,8 C 63 % 1011,4 hPa 0,0 l/m 2 min 0 min 310 W/m 31,4 km/h (5 Bft)
02.11.2014 14:06 20,3 C 17,8 C 63 % 1011,4 hPa 0,0 l/m 2 min 0 min 322 W/m 31,4 km/h (5 Bft)
02.11.2014 14:08 20,3 C 17,8 C 64 % 1011,3 hPa 0,0 l/m 2 min 0 min 316 W/m 20,9 km/h (4 Bft)
02.11.2014 14:10 20,3 C 17,8 C 63 % 1011,3 hPa 0,0 l/m 2 min 0 min 310 W/m 25,1 km/h (4 Bft)
02.11.2014 14:12 20,3 C 17,8 C 63 % 1011,4 hPa 0,0 l/m 2 min 0 min 308 W/m 33,5 km/h (5 Bft)
02.11.2014 14:14 20,3 C 17,8 C 63 % 1011,3 hPa 0,0 l/m 2 min 0 min 301 W/m 31,4 km/h (5 Bft)
02.11.2014 14:16 20,3 C 17,8 C 63 % 1011,2 hPa 0,0 l/m 2 min 0 min 296 W/m 31,4 km/h (5 Bft)
02.11.2014 14:18 20,3 C 17,8 C 63 % 1011,1 hPa 0,0 l/m 2 min 0 min 290 W/m 29,3 km/h (5 Bft)
02.11.2014 14:20 20,3 C 17,2 C 64 % 1011,1 hPa 0,0 l/m 2 min 0 min 286 W/m 43,9 km/h (6 Bft)
02.11.2014 14:22 20,2 C 17,2 C 64 % 1011,1 hPa 0,0 l/m 2 min 0 min 280 W/m 23,0 km/h (4 Bft)
02.11.2014 14:24 20,2 C 17,2 C 64 % 1011,0 hPa 0,0 l/m 2 min 0 min 276 W/m 37,7 km/h (5 Bft)
02.11.2014 14:26 20,2 C 17,2 C 64 % 1011,1 hPa 0,0 l/m 2 min 0 min 273 W/m 31,4 km/h (5 Bft)
02.11.2014 14:28 20,1 C 17,2 C 64 % 1011,0 hPa 0,0 l/m 2 min 0 min 268 W/m 37,7 km/h (5 Bft)
02.11.2014 14:30 20,1 C 17,2 C 65 % 1011,0 hPa 0,0 l/m 2 min 0 min 263 W/m 29,3 km/h (5 Bft)
02.11.2014 14:32 20,1 C 17,2 C 66 % 1010,9 hPa 0,0 l/m 2 min 0 min 258 W/m 33,5 km/h (5 Bft)
02.11.2014 14:34 20,0 C 17,2 C 66 % 1010,9 hPa 0,0 l/m 2 min 0 min 253 W/m 20,9 km/h (4 Bft)
02.11.2014 14:36 20,0 C 17,2 C 66 % 1010,8 hPa 0,0 l/m 2 min 0 min 249 W/m 25,1 km/h (4 Bft)
02.11.2014 14:38 20,0 C 17,2 C 66 % 1010,9 hPa 0,0 l/m 2 min 0 min 246 W/m 29,3 km/h (5 Bft)
02.11.2014 14:40 20,0 C 17,2 C 66 % 1010,8 hPa 0,0 l/m 2 min 0 min 241 W/m 29,3 km/h (5 Bft)
02.11.2014 14:42 19,9 C 17,2 C 66 % 1010,8 hPa 0,0 l/m 2 min 0 min 232 W/m 25,1 km/h (4 Bft)
02.11.2014 14:44 19,9 C 17,2 C 66 % 1010,8 hPa 0,0 l/m 2 min 0 min 228 W/m 31,4 km/h (5 Bft)
02.11.2014 14:46 19,9 C 17,2 C 66 % 1010,8 hPa 0,0 l/m 2 min 0 min 224 W/m 31,4 km/h (5 Bft)
02.11.2014 14:48 19,8 C 17,2 C 66 % 1010,8 hPa 0,0 l/m 2 min 0 min 221 W/m 25,1 km/h (4 Bft)
02.11.2014 14:50 19,8 C 17,2 C 67 % 1010,8 hPa 0,0 l/m 2 min 0 min 187 W/m 25,1 km/h (4 Bft)
02.11.2014 14:52 19,8 C 16,7 C 67 % 1010,8 hPa 0,0 l/m 2 min 0 min 207 W/m 18,8 km/h (3 Bft)
02.11.2014 14:54 19,8 C 16,7 C 67 % 1010,8 hPa 0,0 l/m 0 min 0 min 97 W/m 18,8 km/h (3 Bft)
02.11.2014 14:56 19,7 C 16,7 C 67 % 1010,7 hPa 0,0 l/m 2 min 0 min 191 W/m 23,0 km/h (4 Bft)
02.11.2014 14:58 19,7 C 16,7 C 67 % 1010,7 hPa 0,0 l/m 2 min 0 min 202 W/m 23,0 km/h (4 Bft)
02.11.2014 15:00 19,7 C 16,7 C 67 % 1010,8 hPa 0,0 l/m 0 min 0 min 108 W/m 29,3 km/h (5 Bft)
02.11.2014 15:02 19,7 C 16,7 C 67 % 1010,7 hPa 0,0 l/m 0 min 0 min 74 W/m 18,8 km/h (3 Bft)
02.11.2014 15:04 19,6 C 16,7 C 68 % 1010,8 hPa 0,0 l/m 2 min 0 min 128 W/m 20,9 km/h (4 Bft)
02.11.2014 15:06 19,6 C 16,7 C 68 % 1010,8 hPa 0,0 l/m 2 min 0 min 134 W/m 20,9 km/h (4 Bft)
02.11.2014 15:08 19,6 C 16,7 C 68 % 1010,7 hPa 0,0 l/m 0 min 0 min 122 W/m 14,6 km/h (3 Bft)
02.11.2014 15:10 19,5 C 17,2 C 68 % 1010,7 hPa 0,0 l/m 0 min 0 min 120 W/m 20,9 km/h (4 Bft)
02.11.2014 15:12 19,5 C 17,2 C 68 % 1010,8 hPa 0,0 l/m 0 min 0 min 110 W/m 20,9 km/h (4 Bft)
02.11.2014 15:14 19,5 C 16,7 C 68 % 1010,7 hPa 0,0 l/m 0 min 0 min 90 W/m 23,0 km/h (4 Bft)
02.11.2014 15:16 19,4 C 16,7 C 68 % 1010,7 hPa 0,0 l/m 0 min 0 min 83 W/m 29,3 km/h (5 Bft)
02.11.2014 15:18 19,4 C 16,7 C 69 % 1010,7 hPa 0,0 l/m 0 min 0 min 83 W/m 27,2 km/h (4 Bft)
02.11.2014 15:20 19,3 C 16,7 C 68 % 1010,7 hPa 0,0 l/m 0 min 0 min 82 W/m 29,3 km/h (5 Bft)
02.11.2014 15:22 19,3 C 16,7 C 69 % 1010,7 hPa 0,0 l/m 0 min 0 min 77 W/m 29,3 km/h (5 Bft)
02.11.2014 15:24 19,2 C 16,7 C 68 % 1010,7 hPa 0,0 l/m 0 min 0 min 75 W/m 35,6 km/h (5 Bft)
02.11.2014 15:26 19,2 C 16,7 C 69 % 1010,7 hPa 0,0 l/m 0 min 0 min 65 W/m 23,0 km/h (4 Bft)
02.11.2014 15:28 19,1 C 16,7 C 69 % 1010,7 hPa 0,0 l/m 0 min 0 min 76 W/m 14,6 km/h (3 Bft)
02.11.2014 15:30 19,0 C 16,7 C 70 % 1010,7 hPa 0,0 l/m 2 min 0 min 115 W/m 33,5 km/h (5 Bft)
02.11.2014 15:32 18,9 C 16,7 C 70 % 1010,6 hPa 0,0 l/m 2 min 0 min 136 W/m 31,4 km/h (5 Bft)
02.11.2014 15:34 18,9 C 16,7 C 70 % 1010,6 hPa 0,0 l/m 2 min 0 min 131 W/m 27,2 km/h (4 Bft)
02.11.2014 15:36 18,8 C 16,7 C 70 % 1010,6 hPa 0,0 l/m 2 min 0 min 104 W/m 35,6 km/h (5 Bft)
02.11.2014 15:38 18,8 C 16,7 C 70 % 1010,6 hPa 0,0 l/m 2 min 0 min 110 W/m 29,3 km/h (5 Bft)
02.11.2014 15:40 18,8 C 16,7 C 70 % 1010,5 hPa 0,0 l/m 2 min 0 min 118 W/m 43,9 km/h (6 Bft)
02.11.2014 15:42 18,7 C 16,7 C 71 % 1010,5 hPa 0,0 l/m 2 min 0 min 111 W/m 39,7 km/h (6 Bft)
02.11.2014 15:44 18,6 C 16,1 C 71 % 1010,5 hPa 0,0 l/m 0 min 0 min 57 W/m 41,8 km/h (6 Bft)
02.11.2014 15:46 18,6 C 16,1 C 71 % 1010,4 hPa 0,0 l/m 0 min 0 min 57 W/m 37,7 km/h (5 Bft)
02.11.2014 15:48 18,4 C 16,1 C 71 % 1010,4 hPa 0,0 l/m 2 min 0 min 94 W/m 23,0 km/h (4 Bft)
02.11.2014 15:50 18,4 C 16,1 C 71 % 1010,3 hPa 0,0 l/m 2 min 0 min 105 W/m 29,3 km/h (5 Bft)
02.11.2014 15:52 18,4 C 16,1 C 72 % 1010,3 hPa 0,0 l/m 2 min 0 min 106 W/m 20,9 km/h (4 Bft)
02.11.2014 15:54 18,3 C 16,1 C 72 % 1010,2 hPa 0,0 l/m 2 min 0 min 88 W/m 27,2 km/h (4 Bft)
02.11.2014 15:56 18,3 C 16,1 C 72 % 1010,2 hPa 0,0 l/m 2 min 0 min 76 W/m 18,8 km/h (3 Bft)
02.11.2014 15:58 18,3 C 16,1 C 72 % 1010,2 hPa 0,0 l/m 0 min 0 min 69 W/m 20,9 km/h (4 Bft)
02.11.2014 16:00 18,2 C 16,1 C 73 % 1010,2 hPa 0,0 l/m 0 min 0 min 65 W/m 27,2 km/h (4 Bft)
02.11.2014 16:02 18,2 C 15,6 C 73 % 1010,1 hPa 0,0 l/m 0 min 0 min 60 W/m 35,6 km/h (5 Bft)
02.11.2014 16:04 18,1 C 15,6 C 73 % 1010,1 hPa 0,0 l/m 0 min 0 min 57 W/m 18,8 km/h (3 Bft)
02.11.2014 16:06 18,1 C 15,6 C 74 % 1010,1 hPa 0,0 l/m 0 min 0 min 54 W/m 14,6 km/h (3 Bft)
02.11.2014 16:08 18,1 C 15,6 C 74 % 1010,1 hPa 0,0 l/m 0 min 0 min 51 W/m 18,8 km/h (3 Bft)
02.11.2014 16:10 18,0 C 15,6 C 74 % 1010,1 hPa 0,0 l/m 0 min 0 min 44 W/m 20,9 km/h (4 Bft)
02.11.2014 16:12 18,0 C 15,6 C 74 % 1010,1 hPa 0,0 l/m 0 min 0 min 36 W/m 20,9 km/h (4 Bft)
02.11.2014 16:14 17,9 C 15,0 C 74 % 1010,1 hPa 0,0 l/m 0 min 0 min 32 W/m 20,9 km/h (4 Bft)
02.11.2014 16:16 17,9 C 15,0 C 75 % 1010,1 hPa 0,0 l/m 0 min 0 min 34 W/m 33,5 km/h (5 Bft)
02.11.2014 16:18 17,8 C 15,6 C 75 % 1010,1 hPa 0,0 l/m 0 min 0 min 36 W/m 31,4 km/h (5 Bft)
02.11.2014 16:20 17,8 C 15,6 C 75 % 1010,1 hPa 0,0 l/m 0 min 0 min 38 W/m 18,8 km/h (3 Bft)
02.11.2014 16:22 17,8 C 15,6 C 75 % 1010,0 hPa 0,0 l/m 0 min 0 min 37 W/m 18,8 km/h (3 Bft)
02.11.2014 16:24 17,7 C 15,6 C 75 % 1010,0 hPa 0,0 l/m 0 min 0 min 34 W/m 33,5 km/h (5 Bft)
02.11.2014 16:26 17,7 C 15,6 C 75 % 1010,0 hPa 0,0 l/m 0 min 0 min 34 W/m 18,8 km/h (3 Bft)
02.11.2014 16:28 17,7 C 15,6 C 76 % 1010,0 hPa 0,0 l/m 0 min 0 min 34 W/m 18,8 km/h (3 Bft)
02.11.2014 16:30 17,6 C 15,6 C 76 % 1009,9 hPa 0,0 l/m 0 min 0 min 33 W/m 16,7 km/h (3 Bft)
02.11.2014 16:32 17,6 C 15,6 C 76 % 1010,0 hPa 0,0 l/m 0 min 0 min 27 W/m 25,1 km/h (4 Bft)
02.11.2014 16:34 17,6 C 15,6 C 76 % 1010,0 hPa 0,0 l/m 0 min 0 min 19 W/m 14,6 km/h (3 Bft)
02.11.2014 16:36 17,6 C 15,6 C 76 % 1010,0 hPa 0,0 l/m 0 min 0 min 14 W/m 25,1 km/h (4 Bft)
02.11.2014 16:38 17,6 C 15,6 C 77 % 1010,0 hPa 0,0 l/m 0 min 0 min 12 W/m 14,6 km/h (3 Bft)
02.11.2014 16:40 17,5 C 15,6 C 77 % 1010,0 hPa 0,0 l/m 0 min 0 min 15 W/m 12,6 km/h (3 Bft)
02.11.2014 16:42 17,5 C 15,6 C 77 % 1009,8 hPa 0,0 l/m 0 min 0 min 18 W/m 20,9 km/h (4 Bft)
02.11.2014 16:44 17,5 C 15,6 C 77 % 1009,9 hPa 0,0 l/m 0 min 0 min 16 W/m 14,6 km/h (3 Bft)
02.11.2014 16:46 17,4 C 15,0 C 77 % 1009,9 hPa 0,0 l/m 0 min 0 min 16 W/m 20,9 km/h (4 Bft)
02.11.2014 16:48 17,4 C 15,0 C 77 % 1009,8 hPa 0,0 l/m 2 min 0 min 16 W/m 20,9 km/h (4 Bft)
02.11.2014 16:50 17,4 C 15,6 C 77 % 1009,8 hPa 0,0 l/m 2 min 0 min 16 W/m 20,9 km/h (4 Bft)
02.11.2014 16:52 17,4 C 15,6 C 77 % 1009,7 hPa 0,0 l/m 2 min 0 min 16 W/m 23,0 km/h (4 Bft)
02.11.2014 16:54 17,4 C 15,0 C 77 % 1009,7 hPa 0,0 l/m 2 min 0 min 14 W/m 20,9 km/h (4 Bft)
02.11.2014 16:56 17,4 C 15,0 C 77 % 1009,7 hPa 0,0 l/m 0 min 0 min 12 W/m 18,8 km/h (3 Bft)
02.11.2014 16:58 17,3 C 15,0 C 78 % 1009,6 hPa 0,0 l/m 0 min 0 min 12 W/m 16,7 km/h (3 Bft)
02.11.2014 17:00 17,3 C 15,0 C 78 % 1009,6 hPa 0,0 l/m 0 min 0 min 12 W/m 23,0 km/h (4 Bft)
02.11.2014 17:02 17,3 C 15,0 C 78 % 1009,5 hPa 0,0 l/m 0 min 0 min 11 W/m 27,2 km/h (4 Bft)
02.11.2014 17:04 17,3 C 15,0 C 78 % 1009,6 hPa 0,0 l/m 0 min 0 min 8 W/m 23,0 km/h (4 Bft)
02.11.2014 17:06 17,2 C 15,0 C 78 % 1009,7 hPa 0,0 l/m 0 min 0 min 6 W/m 16,7 km/h (3 Bft)
02.11.2014 17:08 17,2 C 14,4 C 78 % 1009,7 hPa 0,0 l/m 0 min 0 min 5 W/m 16,7 km/h (3 Bft)
02.11.2014 17:10 17,2 C 14,4 C 78 % 1009,6 hPa 0,0 l/m 0 min 0 min 1 W/m 14,6 km/h (3 Bft)
02.11.2014 17:12 17,2 C 14,4 C 78 % 1009,7 hPa 0,0 l/m 0 min 0 min 0 W/m 12,6 km/h (3 Bft)
02.11.2014 17:14 17,1 C 14,4 C 78 % 1009,6 hPa 0,0 l/m 0 min 0 min 0 W/m 14,6 km/h (3 Bft)
02.11.2014 17:16 17,1 C 14,4 C 78 % 1009,6 hPa 0,0 l/m 0 min 0 min 0 W/m 14,6 km/h (3 Bft)
02.11.2014 17:18 17,1 C 14,4 C 79 % 1009,5 hPa 0,0 l/m 0 min 0 min 0 W/m 12,6 km/h (3 Bft)
02.11.2014 17:20 17,0 C 14,4 C 79 % 1009,5 hPa 0,0 l/m 0 min 0 min 0 W/m 14,6 km/h (3 Bft)
02.11.2014 17:22 16,9 C 13,9 C 79 % 1009,5 hPa 0,0 l/m 0 min 0 min 0 W/m 14,6 km/h (3 Bft)
02.11.2014 17:24 16,9 C 13,9 C 79 % 1009,5 hPa 0,0 l/m 0 min 0 min 0 W/m 14,6 km/h (3 Bft)
02.11.2014 17:26 16,8 C 13,9 C 80 % 1009,4 hPa 0,0 l/m 0 min 0 min 0 W/m 14,6 km/h (3 Bft)
02.11.2014 17:28 16,8 C 13,9 C 80 % 1009,4 hPa 0,0 l/m 0 min 0 min 0 W/m 10,5 km/h (2 Bft)
02.11.2014 17:30 16,7 C 13,9 C 80 % 1009,4 hPa 0,0 l/m 0 min 0 min 0 W/m 12,6 km/h (3 Bft)
02.11.2014 17:32 16,7 C 13,3 C 80 % 1009,4 hPa 0,0 l/m 0 min 0 min 0 W/m 12,6 km/h (3 Bft)
02.11.2014 17:34 16,6 C 13,3 C 80 % 1009,4 hPa 0,0 l/m 0 min 0 min 0 W/m 16,7 km/h (3 Bft)
02.11.2014 17:36 16,6 C 13,3 C 80 % 1009,4 hPa 0,0 l/m 0 min 0 min 0 W/m 16,7 km/h (3 Bft)
02.11.2014 17:38 16,4 C 13,3 C 81 % 1009,4 hPa 0,0 l/m 0 min 0 min 0 W/m 12,6 km/h (3 Bft)
02.11.2014 17:40 16,4 C 13,3 C 81 % 1009,4 hPa 0,0 l/m 0 min 0 min 0 W/m 16,7 km/h (3 Bft)
02.11.2014 17:42 16,3 C 13,3 C 81 % 1009,4 hPa 0,0 l/m 0 min 0 min 0 W/m 16,7 km/h (3 Bft)
02.11.2014 17:44 16,3 C 13,3 C 81 % 1009,4 hPa 0,0 l/m 0 min 0 min 0 W/m 16,7 km/h (3 Bft)
02.11.2014 17:46 16,2 C 13,3 C 82 % 1009,4 hPa 0,0 l/m 0 min 0 min 0 W/m 16,7 km/h (3 Bft)
02.11.2014 17:48 16,2 C 13,3 C 82 % 1009,4 hPa 0,0 l/m 0 min 0 min 0 W/m 20,9 km/h (4 Bft)
02.11.2014 17:50 16,1 C 13,3 C 82 % 1009,4 hPa 0,0 l/m 0 min 0 min 0 W/m 16,7 km/h (3 Bft)
02.11.2014 17:52 16,1 C 13,3 C 82 % 1009,4 hPa 0,0 l/m 0 min 0 min 0 W/m 14,6 km/h (3 Bft)
02.11.2014 17:54 16,0 C 13,3 C 82 % 1009,3 hPa 0,0 l/m 0 min 0 min 0 W/m 16,7 km/h (3 Bft)
02.11.2014 17:56 15,9 C 13,3 C 82 % 1009,4 hPa 0,0 l/m 0 min 0 min 0 W/m 20,9 km/h (4 Bft)
02.11.2014 17:58 15,9 C 13,3 C 83 % 1009,3 hPa 0,0 l/m 0 min 0 min 0 W/m 18,8 km/h (3 Bft)
02.11.2014 18:00 15,8 C 13,3 C 83 % 1009,3 hPa 0,0 l/m 0 min 0 min 0 W/m 18,8 km/h (3 Bft)
02.11.2014 18:02 15,8 C 13,3 C 83 % 1009,2 hPa 0,0 l/m 0 min 0 min 0 W/m 16,7 km/h (3 Bft)
02.11.2014 18:05 15,7 C 13,3 C 83 % 1009,2 hPa 0,0 l/m 0 min 0 min 0 W/m 18,8 km/h (3 Bft)
02.11.2014 18:08 15,6 C 13,3 C 83 % 1009,2 hPa 0,0 l/m 0 min 0 min 0 W/m 20,9 km/h (4 Bft)
02.11.2014 18:10 15,6 C 13,3 C 84 % 1009,2 hPa 0,0 l/m 0 min 0 min 0 W/m 14,6 km/h (3 Bft)
02.11.2014 18:12 15,5 C 12,8 C 84 % 1009,2 hPa 0,0 l/m 0 min 0 min 0 W/m 14,6 km/h (3 Bft)
02.11.2014 18:14 15,5 C 12,8 C 84 % 1009,2 hPa 0,0 l/m 0 min 0 min 0 W/m 16,7 km/h (3 Bft)
02.11.2014 18:16 15,4 C 12,8 C 84 % 1009,2 hPa 0,0 l/m 0 min 0 min 0 W/m 23,0 km/h (4 Bft)
02.11.2014 18:18 15,4 C 12,8 C 84 % 1009,2 hPa 0,0 l/m 0 min 0 min 0 W/m 12,6 km/h (3 Bft)
02.11.2014 18:20 15,3 C 12,8 C 84 % 1009,1 hPa 0,0 l/m 0 min 0 min 0 W/m 12,6 km/h (3 Bft)
02.11.2014 18:22 15,3 C 12,8 C 85 % 1009,1 hPa 0,0 l/m 0 min 0 min 0 W/m 18,8 km/h (3 Bft)
02.11.2014 18:24 15,3 C 12,8 C 85 % 1009,1 hPa 0,0 l/m 0 min 0 min 0 W/m 14,6 km/h (3 Bft)
02.11.2014 18:26 15,2 C 12,8 C 85 % 1009,1 hPa 0,0 l/m 0 min 0 min 0 W/m 16,7 km/h (3 Bft)
02.11.2014 18:28 15,2 C 12,8 C 85 % 1008,9 hPa 0,0 l/m 0 min 0 min 0 W/m 14,6 km/h (3 Bft)
02.11.2014 18:30 15,2 C 12,8 C 85 % 1009,0 hPa 0,0 l/m 0 min 0 min 0 W/m 16,7 km/h (3 Bft)
02.11.2014 18:32 15,2 C 12,8 C 85 % 1009,0 hPa 0,0 l/m 0 min 0 min 0 W/m 14,6 km/h (3 Bft)
02.11.2014 18:34 15,1 C 12,8 C 85 % 1009,0 hPa 0,0 l/m 0 min 0 min 0 W/m 16,7 km/h (3 Bft)
02.11.2014 18:36 15,1 C 12,8 C 85 % 1009,0 hPa 0,0 l/m 0 min 0 min 0 W/m 14,6 km/h (3 Bft)
02.11.2014 18:38 15,1 C 12,8 C 85 % 1009,0 hPa 0,0 l/m 0 min 0 min 0 W/m 14,6 km/h (3 Bft)
02.11.2014 18:40 15,1 C 12,8 C 86 % 1009,0 hPa 0,0 l/m 0 min 0 min 0 W/m 12,6 km/h (3 Bft)
02.11.2014 18:42 15,0 C 12,8 C 86 % 1009,0 hPa 0,0 l/m 0 min 0 min 0 W/m 16,7 km/h (3 Bft)
02.11.2014 18:44 15,0 C 12,8 C 86 % 1009,0 hPa 0,0 l/m 0 min 0 min 0 W/m 20,9 km/h (4 Bft)
02.11.2014 18:46 14,9 C 12,8 C 86 % 1008,9 hPa 0,0 l/m 0 min 0 min 0 W/m 14,6 km/h (3 Bft)
02.11.2014 18:48 14,9 C 12,8 C 86 % 1009,0 hPa 0,0 l/m 0 min 0 min 0 W/m 16,7 km/h (3 Bft)
02.11.2014 18:50 14,9 C 12,8 C 86 % 1008,9 hPa 0,0 l/m 0 min 0 min 0 W/m 16,7 km/h (3 Bft)
02.11.2014 18:52 14,8 C 12,8 C 86 % 1008,9 hPa 0,0 l/m 0 min 0 min 0 W/m 20,9 km/h (4 Bft)
02.11.2014 18:54 14,8 C 12,8 C 86 % 1008,8 hPa 0,0 l/m 0 min 0 min 0 W/m 16,7 km/h (3 Bft)
02.11.2014 18:56 14,8 C 12,8 C 87 % 1008,8 hPa 0,0 l/m 0 min 0 min 0 W/m 23,0 km/h (4 Bft)
02.11.2014 18:58 14,8 C 12,8 C 87 % 1008,9 hPa 0,0 l/m 0 min 0 min 0 W/m 18,8 km/h (3 Bft)
02.11.2014 19:00 14,7 C 12,8 C 87 % 1008,8 hPa 0,0 l/m 0 min 0 min 0 W/m 18,8 km/h (3 Bft)
02.11.2014 19:02 14,7 C 12,8 C 87 % 1008,8 hPa 0,0 l/m 0 min 0 min 0 W/m 12,6 km/h (3 Bft)
02.11.2014 19:04 14,7 C 12,8 C 87 % 1008,8 hPa 0,0 l/m 0 min 0 min 0 W/m 25,1 km/h (4 Bft)
02.11.2014 19:06 14,6 C 12,8 C 88 % 1008,7 hPa 0,0 l/m 0 min 0 min 0 W/m 18,8 km/h (3 Bft)
02.11.2014 19:08 14,6 C 12,8 C 88 % 1008,7 hPa 0,0 l/m 0 min 0 min 0 W/m 18,8 km/h (3 Bft)
02.11.2014 19:10 14,6 C 12,8 C 88 % 1008,7 hPa 0,0 l/m 0 min 0 min 0 W/m 16,7 km/h (3 Bft)
02.11.2014 19:12 14,6 C 12,8 C 88 % 1008,7 hPa 0,0 l/m 0 min 0 min 0 W/m 14,6 km/h (3 Bft)
02.11.2014 19:14 14,6 C 12,8 C 88 % 1008,6 hPa 0,0 l/m 0 min 0 min 0 W/m 23,0 km/h (4 Bft)
02.11.2014 19:16 14,5 C 12,8 C 88 % 1008,7 hPa 0,0 l/m 0 min 0 min 0 W/m 18,8 km/h (3 Bft)
02.11.2014 19:18 14,5 C 12,8 C 88 % 1008,6 hPa 0,0 l/m 0 min 0 min 0 W/m 18,8 km/h (3 Bft)
02.11.2014 19:20 14,5 C 12,8 C 88 % 1008,6 hPa 0,0 l/m 0 min 0 min 0 W/m 16,7 km/h (3 Bft)
02.11.2014 19:22 14,4 C 12,8 C 88 % 1008,6 hPa 0,0 l/m 0 min 0 min 0 W/m 18,8 km/h (3 Bft)
02.11.2014 19:24 14,4 C 12,8 C 89 % 1008,6 hPa 0,0 l/m 0 min 0 min 0 W/m 16,7 km/h (3 Bft)
02.11.2014 19:26 14,4 C 12,8 C 89 % 1008,6 hPa 0,0 l/m 0 min 0 min 0 W/m 14,6 km/h (3 Bft)
02.11.2014 19:28 14,4 C 12,8 C 89 % 1008,4 hPa 0,0 l/m 0 min 0 min 0 W/m 14,6 km/h (3 Bft)
02.11.2014 19:30 14,4 C 12,8 C 89 % 1008,5 hPa 0,0 l/m 0 min 0 min 0 W/m 18,8 km/h (3 Bft)
02.11.2014 19:32 14,4 C 12,8 C 89 % 1008,5 hPa 0,0 l/m 0 min 0 min 0 W/m 23,0 km/h (4 Bft)
02.11.2014 19:34 14,3 C 12,2 C 89 % 1008,5 hPa 0,0 l/m 0 min 0 min 0 W/m 16,7 km/h (3 Bft)
02.11.2014 19:36 14,3 C 12,2 C 89 % 1008,5 hPa 0,0 l/m 0 min 0 min 0 W/m 14,6 km/h (3 Bft)
02.11.2014 19:38 14,3 C 12,2 C 89 % 1008,5 hPa 0,0 l/m 0 min 0 min 0 W/m 14,6 km/h (3 Bft)
02.11.2014 19:40 14,3 C 12,2 C 89 % 1008,4 hPa 0,0 l/m 0 min 0 min 0 W/m 18,8 km/h (3 Bft)
02.11.2014 19:42 14,2 C 12,2 C 89 % 1008,4 hPa 0,0 l/m 0 min 0 min 0 W/m 10,5 km/h (2 Bft)
02.11.2014 19:44 14,2 C 12,2 C 89 % 1008,4 hPa 0,0 l/m 0 min 0 min 0 W/m 10,5 km/h (2 Bft)
02.11.2014 19:46 14,2 C 12,2 C 89 % 1008,4 hPa 0,0 l/m 0 min 0 min 0 W/m 14,6 km/h (3 Bft)
02.11.2014 19:48 14,2 C 12,2 C 89 % 1008,3 hPa 0,0 l/m 0 min 0 min 0 W/m 12,6 km/h (3 Bft)
02.11.2014 19:50 14,2 C 12,2 C 89 % 1008,4 hPa 0,0 l/m 0 min 0 min 0 W/m 14,6 km/h (3 Bft)
02.11.2014 19:52 14,2 C 12,2 C 90 % 1008,4 hPa 0,0 l/m 0 min 0 min 0 W/m 12,6 km/h (3 Bft)
02.11.2014 19:54 14,2 C 12,2 C 90 % 1008,3 hPa 0,0 l/m 0 min 0 min 0 W/m 12,6 km/h (3 Bft)
02.11.2014 19:56 14,2 C 12,2 C 90 % 1008,3 hPa 0,0 l/m 0 min 0 min 0 W/m 12,6 km/h (3 Bft)
02.11.2014 19:58 14,2 C 12,2 C 90 % 1008,3 hPa 0,0 l/m 0 min 0 min 0 W/m 12,6 km/h (3 Bft)
02.11.2014 20:00 14,2 C 12,2 C 90 % 1008,3 hPa 0,0 l/m 0 min 0 min 0 W/m 12,6 km/h (3 Bft)
02.11.2014 20:02 14,2 C 12,2 C 90 % 1008,2 hPa 0,0 l/m 0 min 0 min 0 W/m 14,6 km/h (3 Bft)
02.11.2014 20:04 14,1 C 12,2 C 90 % 1008,2 hPa 0,0 l/m 0 min 0 min 0 W/m 12,6 km/h (3 Bft)
02.11.2014 20:06 14,1 C 12,2 C 90 % 1008,3 hPa 0,0 l/m 0 min 0 min 0 W/m 12,6 km/h (3 Bft)
02.11.2014 20:08 14,1 C 12,2 C 90 % 1008,3 hPa 0,0 l/m 0 min 0 min 0 W/m 12,6 km/h (3 Bft)
02.11.2014 20:10 14,0 C 12,2 C 90 % 1008,3 hPa 0,0 l/m 0 min 0 min 0 W/m 12,6 km/h (3 Bft)
02.11.2014 20:12 14,0 C 12,2 C 90 % 1008,2 hPa 0,0 l/m 0 min 0 min 0 W/m 8,4 km/h (2 Bft)
02.11.2014 20:14 14,0 C 12,2 C 90 % 1008,2 hPa 0,0 l/m 0 min 0 min 0 W/m 12,6 km/h (3 Bft)
02.11.2014 20:16 13,9 C 12,2 C 91 % 1008,2 hPa 0,0 l/m 0 min 0 min 0 W/m 10,5 km/h (2 Bft)
02.11.2014 20:18 13,9 C 12,2 C 91 % 1008,2 hPa 0,0 l/m 0 min 0 min 0 W/m 10,5 km/h (2 Bft)
02.11.2014 20:20 13,9 C 12,2 C 91 % 1008,2 hPa 0,0 l/m 0 min 0 min 0 W/m 10,5 km/h (2 Bft)
02.11.2014 20:22 13,9 C 12,2 C 91 % 1008,2 hPa 0,0 l/m 0 min 0 min 0 W/m 12,6 km/h (3 Bft)
02.11.2014 20:24 13,9 C 12,2 C 91 % 1008,2 hPa 0,0 l/m 0 min 0 min 0 W/m 12,6 km/h (3 Bft)
02.11.2014 20:26 13,9 C 12,2 C 91 % 1008,1 hPa 0,0 l/m 0 min 0 min 0 W/m 12,6 km/h (3 Bft)
02.11.2014 20:28 13,9 C 12,2 C 91 % 1008,2 hPa 0,0 l/m 0 min 0 min 0 W/m 10,5 km/h (2 Bft)
02.11.2014 20:30 13,9 C 12,2 C 91 % 1008,2 hPa 0,0 l/m 0 min 0 min 0 W/m 12,6 km/h (3 Bft)
02.11.2014 20:32 13,8 C 12,2 C 91 % 1008,2 hPa 0,0 l/m 0 min 0 min 0 W/m 12,6 km/h (3 Bft)
02.11.2014 20:34 13,8 C 12,2 C 91 % 1008,2 hPa 0,0 l/m 0 min 0 min 0 W/m 8,4 km/h (2 Bft)
02.11.2014 20:36 13,8 C 12,2 C 91 % 1008,2 hPa 0,0 l/m 0 min 0 min 0 W/m 10,5 km/h (2 Bft)
02.11.2014 20:38 13,8 C 12,2 C 91 % 1008,2 hPa 0,0 l/m 0 min 0 min 0 W/m 10,5 km/h (2 Bft)
02.11.2014 20:40 13,8 C 12,2 C 91 % 1008,2 hPa 0,0 l/m 0 min 0 min 0 W/m 12,6 km/h (3 Bft)
02.11.2014 20:42 13,8 C 12,2 C 92 % 1008,2 hPa 0,0 l/m 0 min 0 min 0 W/m 14,6 km/h (3 Bft)
02.11.2014 20:44 13,8 C 12,2 C 92 % 1008,2 hPa 0,0 l/m 0 min 0 min 0 W/m 12,6 km/h (3 Bft)
02.11.2014 20:46 13,8 C 12,2 C 92 % 1008,2 hPa 0,0 l/m 0 min 0 min 0 W/m 14,6 km/h (3 Bft)
02.11.2014 20:48 13,8 C 12,2 C 92 % 1008,2 hPa 0,0 l/m 0 min 0 min 0 W/m 16,7 km/h (3 Bft)
02.11.2014 20:50 13,8 C 12,2 C 92 % 1008,1 hPa 0,0 l/m 0 min 0 min 0 W/m 12,6 km/h (3 Bft)
02.11.2014 20:52 13,9 C 12,2 C 92 % 1008,1 hPa 0,0 l/m 0 min 0 min 0 W/m 14,6 km/h (3 Bft)
02.11.2014 20:54 13,9 C 12,2 C 92 % 1008,1 hPa 0,0 l/m 0 min 2 min 0 W/m 14,6 km/h (3 Bft)
02.11.2014 20:56 13,9 C 12,2 C 92 % 1008,1 hPa 0,0 l/m 0 min 2 min 0 W/m 12,6 km/h (3 Bft)
02.11.2014 20:58 13,9 C 12,2 C 92 % 1008,1 hPa 0,0 l/m 0 min 2 min 0 W/m 14,6 km/h (3 Bft)
02.11.2014 21:00 13,9 C 12,2 C 92 % 1008,0 hPa 0,2 l/m 0 min 2 min 0 W/m 14,6 km/h (3 Bft)
02.11.2014 21:02 13,9 C 12,2 C 93 % 1008,0 hPa 0,0 l/m 0 min 2 min 0 W/m 14,6 km/h (3 Bft)
02.11.2014 21:04 14,0 C 12,2 C 93 % 1008,1 hPa 0,0 l/m 0 min 2 min 0 W/m 16,7 km/h (3 Bft)
02.11.2014 21:06 14,0 C 12,2 C 93 % 1008,0 hPa 0,0 l/m 0 min 2 min 0 W/m 18,8 km/h (3 Bft)
02.11.2014 21:08 14,1 C 12,2 C 93 % 1008,1 hPa 0,2 l/m 0 min 2 min 0 W/m 20,9 km/h (4 Bft)
02.11.2014 21:10 14,1 C 12,2 C 93 % 1008,0 hPa 0,0 l/m 0 min 2 min 0 W/m 20,9 km/h (4 Bft)
02.11.2014 21:12 14,2 C 12,2 C 93 % 1008,0 hPa 0,0 l/m 0 min 2 min 0 W/m 16,7 km/h (3 Bft)
02.11.2014 21:14 14,2 C 12,2 C 93 % 1007,9 hPa 0,2 l/m 0 min 2 min 0 W/m 16,7 km/h (3 Bft)
02.11.2014 21:16 14,2 C 12,2 C 94 % 1007,8 hPa 0,0 l/m 0 min 2 min 0 W/m 18,8 km/h (3 Bft)
02.11.2014 21:18 14,2 C 12,2 C 94 % 1007,8 hPa 0,0 l/m 0 min 2 min 0 W/m 16,7 km/h (3 Bft)
02.11.2014 21:20 14,2 C 12,2 C 94 % 1007,7 hPa 0,0 l/m 0 min 2 min 0 W/m 14,6 km/h (3 Bft)
02.11.2014 21:22 14,2 C 12,2 C 94 % 1007,6 hPa 0,0 l/m 0 min 2 min 0 W/m 12,6 km/h (3 Bft)
02.11.2014 21:24 14,2 C 12,2 C 94 % 1007,6 hPa 0,0 l/m 0 min 2 min 0 W/m 16,7 km/h (3 Bft)
02.11.2014 21:26 14,2 C 12,2 C 94 % 1007,6 hPa 0,0 l/m 0 min 2 min 0 W/m 14,6 km/h (3 Bft)
02.11.2014 21:28 14,2 C 12,2 C 94 % 1007,6 hPa 0,0 l/m 0 min 2 min 0 W/m 10,5 km/h (2 Bft)
02.11.2014 21:30 14,2 C 12,2 C 94 % 1007,6 hPa 0,0 l/m 0 min 2 min 0 W/m 16,7 km/h (3 Bft)
02.11.2014 21:32 14,2 C 12,2 C 94 % 1007,7 hPa 0,0 l/m 0 min 2 min 0 W/m 16,7 km/h (3 Bft)
02.11.2014 21:34 14,2 C 12,2 C 94 % 1007,7 hPa 0,0 l/m 0 min 2 min 0 W/m 14,6 km/h (3 Bft)
02.11.2014 21:36 14,2 C 12,2 C 94 % 1007,6 hPa 0,0 l/m 0 min 2 min 0 W/m 14,6 km/h (3 Bft)
02.11.2014 21:38 14,2 C 12,2 C 94 % 1007,6 hPa 0,0 l/m 0 min 2 min 0 W/m 14,6 km/h (3 Bft)
02.11.2014 21:40 14,2 C 12,2 C 95 % 1007,6 hPa 0,0 l/m 0 min 2 min 0 W/m 18,8 km/h (3 Bft)
02.11.2014 21:42 14,2 C 12,2 C 95 % 1007,6 hPa 0,0 l/m 0 min 2 min 0 W/m 18,8 km/h (3 Bft)
02.11.2014 21:44 14,2 C 12,2 C 95 % 1007,6 hPa 0,0 l/m 0 min 2 min 0 W/m 14,6 km/h (3 Bft)
02.11.2014 21:46 14,2 C 12,2 C 95 % 1007,6 hPa 0,0 l/m 0 min 2 min 0 W/m 14,6 km/h (3 Bft)
02.11.2014 21:48 14,2 C 12,2 C 95 % 1007,6 hPa 0,0 l/m 0 min 2 min 0 W/m 18,8 km/h (3 Bft)
02.11.2014 21:50 14,2 C 12,2 C 95 % 1007,5 hPa 0,0 l/m 0 min 2 min 0 W/m 12,6 km/h (3 Bft)
02.11.2014 21:52 14,2 C 12,2 C 95 % 1007,5 hPa 0,0 l/m 0 min 2 min 0 W/m 16,7 km/h (3 Bft)
02.11.2014 21:54 14,2 C 12,2 C 95 % 1007,5 hPa 0,0 l/m 0 min 2 min 0 W/m 20,9 km/h (4 Bft)
02.11.2014 21:56 14,2 C 12,2 C 95 % 1007,5 hPa 0,0 l/m 0 min 2 min 0 W/m 16,7 km/h (3 Bft)
02.11.2014 21:58 14,2 C 12,2 C 95 % 1007,5 hPa 0,0 l/m 0 min 2 min 0 W/m 18,8 km/h (3 Bft)
02.11.2014 22:00 14,2 C 12,2 C 95 % 1007,4 hPa 0,0 l/m 0 min 2 min 0 W/m 16,7 km/h (3 Bft)
02.11.2014 22:02 14,2 C 12,2 C 95 % 1007,3 hPa 0,0 l/m 0 min 2 min 0 W/m 18,8 km/h (3 Bft)
02.11.2014 22:04 14,2 C 12,2 C 95 % 1007,2 hPa 0,0 l/m 0 min 2 min 0 W/m 16,7 km/h (3 Bft)
02.11.2014 22:06 14,2 C 12,2 C 95 % 1007,2 hPa 0,0 l/m 0 min 2 min 0 W/m 14,6 km/h (3 Bft)
02.11.2014 22:08 14,2 C 12,2 C 95 % 1007,2 hPa 0,0 l/m 0 min 2 min 0 W/m 18,8 km/h (3 Bft)
02.11.2014 22:10 14,2 C 12,2 C 95 % 1007,2 hPa 0,0 l/m 0 min 2 min 0 W/m 16,7 km/h (3 Bft)
02.11.2014 22:12 14,2 C 12,2 C 95 % 1007,2 hPa 0,0 l/m 0 min 2 min 0 W/m 14,6 km/h (3 Bft)
02.11.2014 22:14 14,1 C 12,2 C 95 % 1007,2 hPa 0,0 l/m 0 min 2 min 0 W/m 18,8 km/h (3 Bft)
02.11.2014 22:16 14,1 C 12,2 C 95 % 1007,1 hPa 0,0 l/m 0 min 2 min 0 W/m 18,8 km/h (3 Bft)
02.11.2014 22:18 14,1 C 12,2 C 95 % 1007,0 hPa 0,0 l/m 0 min 2 min 0 W/m 20,9 km/h (4 Bft)
02.11.2014 22:20 14,0 C 12,2 C 95 % 1007,0 hPa 0,0 l/m 0 min 2 min 0 W/m 18,8 km/h (3 Bft)
02.11.2014 22:22 14,0 C 12,2 C 95 % 1006,9 hPa 0,0 l/m 0 min 2 min 0 W/m 16,7 km/h (3 Bft)
02.11.2014 22:24 14,0 C 12,2 C 95 % 1007,0 hPa 0,0 l/m 0 min 2 min 0 W/m 14,6 km/h (3 Bft)
02.11.2014 22:26 13,9 C 12,2 C 95 % 1007,0 hPa 0,0 l/m 0 min 2 min 0 W/m 20,9 km/h (4 Bft)
02.11.2014 22:28 13,9 C 11,7 C 95 % 1006,9 hPa 0,0 l/m 0 min 2 min 0 W/m 18,8 km/h (3 Bft)
02.11.2014 22:30 13,9 C 11,7 C 95 % 1006,9 hPa 0,0 l/m 0 min 2 min 0 W/m 14,6 km/h (3 Bft)
02.11.2014 22:32 13,9 C 11,7 C 95 % 1006,8 hPa 0,0 l/m 0 min 2 min 0 W/m 16,7 km/h (3 Bft)
02.11.2014 22:34 13,8 C 11,7 C 95 % 1006,8 hPa 0,0 l/m 0 min 2 min 0 W/m 16,7 km/h (3 Bft)
02.11.2014 22:36 13,8 C 11,7 C 95 % 1006,9 hPa 0,0 l/m 0 min 2 min 0 W/m 14,6 km/h (3 Bft)
02.11.2014 22:38 13,8 C 11,7 C 95 % 1006,8 hPa 0,0 l/m 0 min 2 min 0 W/m 18,8 km/h (3 Bft)
02.11.2014 22:40 13,8 C 11,7 C 95 % 1006,7 hPa 0,0 l/m 0 min 2 min 0 W/m 16,7 km/h (3 Bft)
02.11.2014 22:42 13,7 C 11,7 C 95 % 1006,7 hPa 0,0 l/m 0 min 2 min 0 W/m 14,6 km/h (3 Bft)
02.11.2014 22:44 13,7 C 11,7 C 95 % 1006,7 hPa 0,0 l/m 0 min 2 min 0 W/m 12,6 km/h (3 Bft)
02.11.2014 22:46 13,7 C 11,7 C 95 % 1006,7 hPa 0,0 l/m 0 min 2 min 0 W/m 14,6 km/h (3 Bft)
02.11.2014 22:48 13,7 C 11,7 C 95 % 1006,6 hPa 0,0 l/m 0 min 2 min 0 W/m 12,6 km/h (3 Bft)
02.11.2014 22:50 13,6 C 11,7 C 95 % 1006,6 hPa 0,0 l/m 0 min 2 min 0 W/m 14,6 km/h (3 Bft)
02.11.2014 22:52 13,6 C 11,7 C 95 % 1006,6 hPa 0,0 l/m 0 min 2 min 0 W/m 10,5 km/h (2 Bft)
02.11.2014 22:54 13,6 C 11,7 C 95 % 1006,6 hPa 0,0 l/m 0 min 2 min 0 W/m 12,6 km/h (3 Bft)
02.11.2014 22:56 13,6 C 11,7 C 95 % 1006,7 hPa 0,0 l/m 0 min 2 min 0 W/m 12,6 km/h (3 Bft)
02.11.2014 22:58 13,5 C 11,7 C 95 % 1006,7 hPa 0,0 l/m 0 min 2 min 0 W/m 14,6 km/h (3 Bft)
02.11.2014 23:00 13,5 C 11,7 C 95 % 1006,6 hPa 0,0 l/m 0 min 2 min 0 W/m 14,6 km/h (3 Bft)
02.11.2014 23:02 13,5 C 11,1 C 95 % 1006,6 hPa 0,0 l/m 0 min 2 min 0 W/m 12,6 km/h (3 Bft)
02.11.2014 23:04 13,4 C 11,1 C 95 % 1006,6 hPa 0,0 l/m 0 min 2 min 0 W/m 12,6 km/h (3 Bft)
02.11.2014 23:06 13,4 C 11,7 C 95 % 1006,5 hPa 0,0 l/m 0 min 2 min 0 W/m 18,8 km/h (3 Bft)
02.11.2014 23:08 13,4 C 11,7 C 95 % 1006,5 hPa 0,0 l/m 0 min 2 min 0 W/m 14,6 km/h (3 Bft)
02.11.2014 23:10 13,4 C 11,7 C 95 % 1006,5 hPa 0,0 l/m 0 min 2 min 0 W/m 16,7 km/h (3 Bft)
02.11.2014 23:12 13,4 C 11,7 C 95 % 1006,4 hPa 0,0 l/m 0 min 2 min 0 W/m 14,6 km/h (3 Bft)
02.11.2014 23:14 13,4 C 11,7 C 95 % 1006,4 hPa 0,0 l/m 0 min 2 min 0 W/m 23,0 km/h (4 Bft)
02.11.2014 23:16 13,4 C 11,7 C 95 % 1006,3 hPa 0,0 l/m 0 min 2 min 0 W/m 16,7 km/h (3 Bft)
02.11.2014 23:18 13,4 C 11,7 C 95 % 1006,4 hPa 0,0 l/m 0 min 2 min 0 W/m 20,9 km/h (4 Bft)
02.11.2014 23:20 13,4 C 11,7 C 95 % 1006,3 hPa 0,0 l/m 0 min 2 min 0 W/m 18,8 km/h (3 Bft)
02.11.2014 23:22 13,4 C 11,7 C 95 % 1006,3 hPa 0,0 l/m 0 min 2 min 0 W/m 16,7 km/h (3 Bft)
02.11.2014 23:24 13,5 C 11,7 C 95 % 1006,3 hPa 0,0 l/m 0 min 2 min 0 W/m 18,8 km/h (3 Bft)
02.11.2014 23:26 13,6 C 12,2 C 95 % 1006,3 hPa 0,2 l/m 0 min 2 min 0 W/m 27,2 km/h (4 Bft)
02.11.2014 23:28 13,6 C 12,2 C 95 % 1006,2 hPa 0,0 l/m 0 min 2 min 0 W/m 14,6 km/h (3 Bft)
02.11.2014 23:30 13,6 C 12,2 C 95 % 1006,2 hPa 0,0 l/m 0 min 2 min 0 W/m 25,1 km/h (4 Bft)
02.11.2014 23:32 13,6 C 12,2 C 95 % 1006,2 hPa 0,0 l/m 0 min 2 min 0 W/m 12,6 km/h (3 Bft)
02.11.2014 23:34 13,7 C 12,2 C 95 % 1006,3 hPa 0,0 l/m 0 min 2 min 0 W/m 12,6 km/h (3 Bft)
02.11.2014 23:36 13,7 C 12,2 C 95 % 1006,2 hPa 0,0 l/m 0 min 2 min 0 W/m 14,6 km/h (3 Bft)
02.11.2014 23:38 13,7 C 12,2 C 95 % 1006,2 hPa 0,0 l/m 0 min 2 min 0 W/m 16,7 km/h (3 Bft)
02.11.2014 23:40 13,7 C 12,2 C 95 % 1006,1 hPa 0,0 l/m 0 min 2 min 0 W/m 14,6 km/h (3 Bft)
02.11.2014 23:42 13,7 C 12,2 C 95 % 1006,1 hPa 0,0 l/m 0 min 2 min 0 W/m 14,6 km/h (3 Bft)
02.11.2014 23:44 13,8 C 12,2 C 95 % 1006,0 hPa 0,0 l/m 0 min 2 min 0 W/m 16,7 km/h (3 Bft)
02.11.2014 23:46 13,8 C 12,2 C 95 % 1006,0 hPa 0,0 l/m 0 min 2 min 0 W/m 18,8 km/h (3 Bft)
02.11.2014 23:48 13,8 C 12,2 C 95 % 1006,0 hPa 0,0 l/m 0 min 2 min 0 W/m 14,6 km/h (3 Bft)
02.11.2014 23:50 13,8 C 12,2 C 95 % 1005,9 hPa 0,0 l/m 0 min 2 min 0 W/m 20,9 km/h (4 Bft)
02.11.2014 23:52 13,8 C 11,7 C 95 % 1005,9 hPa 0,0 l/m 0 min 2 min 0 W/m 14,6 km/h (3 Bft)
02.11.2014 23:54 13,8 C 11,7 C 95 % 1005,9 hPa 0,0 l/m 0 min 2 min 0 W/m 14,6 km/h (3 Bft)
02.11.2014 23:56 13,8 C 12,2 C 95 % 1005,8 hPa 0,0 l/m 0 min 2 min 0 W/m 10,5 km/h (2 Bft)
02.11.2014 23:58 13,8 C 12,2 C 95 % 1005,8 hPa 0,0 l/m 0 min 2 min 0 W/m 14,6 km/h (3 Bft)
_ Min-Zeit 01:52 00:54 12:58 23:56 - - - - 00:10
Minimum _ 11,6 C 10,0 C 63 % 1005,8 hPa - - - - 6,3 km/h (2 Bft)
_ Max-Zeit 13:56 13:56 09:08 00:02 21:00 09:10 20:54 11:52 14:20
Maximum _ 20,3 C 17,8 C 97 % 1016,9 hPa 0,2 l/m 2 min 2 min 408 W/m 43,9 km/h
S (6 Bft)
Durchschnitt _ 14,6 C 12,8 C 87 % 1012,2 hPa #0,8 l/m #6:15 h #3:06 h 211 W/m 15,6 km/h (3 Bft)
© 2014 W. Hausmann